PWSweather.com
Personal Weather Stations
Station Observations
EI4HQ
Cork Harbour, CobhIE

Cork HarbourCobhIE

Lat: 51.85, Lon: -8.29

Elevation: 252

Station Type: Davis Vantage Pro2

http://www.corkharbourweather.ie

High Low Average
Temperature 60.3°F15.7°C 46.2°F7.9°C 54.6°F12.6°C
Dew Point 59.5°F15.3°C 45.3°F7.4°C 53.7°F12.1°C
Winds 21.0 mph 33.8 kmh Calm Calm 8.0 mph SSW12.9 kmh SSW
Wind Gusts 37.0 mph59.5 kmh -- 16.0 mph25.7 kmh
Humidity 100% 84% 97%
Pressure 30.04 in1017.3 mb 29.89 in1012.2 mb -
Precipitation 29.26 in743.2 mm - -
Hour Temp Dew Point Humidity Winds Wind Gusts Pressure Precip Precip Rate Daily Precip Total
12:00 AM 48.9°F9.4°C 47.8°F8.8°C 96% 4.0 mph WSW6.4 kmh WSW 8.0 mph12.9 kmh 29.97 in1014.9 mb 0.00 in0.0 mm 0.00 in0.0 mm 0.00 in0.0 mm
12:03 AM 48.9°F9.4°C 47.8°F8.8°C 96% 4.0 mph WSW6.4 kmh WSW 8.0 mph12.9 kmh 29.97 in1014.9 mb 0.00 in0.0 mm 0.00 in0.0 mm 0.00 in0.0 mm
12:06 AM 48.9°F9.4°C 47.8°F8.8°C 96% 4.0 mph WSW6.4 kmh WSW 8.0 mph12.9 kmh 29.98 in1015.2 mb 0.00 in0.0 mm 0.00 in0.0 mm 0.00 in0.0 mm
12:09 AM 48.9°F9.4°C 47.8°F8.8°C 96% 4.0 mph WSW6.4 kmh WSW 8.0 mph12.9 kmh 29.98 in1015.2 mb 0.00 in0.0 mm 0.00 in0.0 mm 0.00 in0.0 mm
12:12 AM 48.9°F9.4°C 47.8°F8.8°C 96% 5.0 mph WSW8.0 kmh WSW 9.0 mph14.5 kmh 29.97 in1014.9 mb 0.00 in0.0 mm 0.00 in0.0 mm 0.00 in0.0 mm
12:15 AM 48.9°F9.4°C 47.8°F8.8°C 96% 5.0 mph WSW8.0 kmh WSW 10.0 mph16.1 kmh 29.97 in1014.9 mb 0.00 in0.0 mm 0.00 in0.0 mm 0.00 in0.0 mm
12:18 AM 48.7°F9.3°C 47.7°F8.7°C 96% 5.0 mph WSW8.0 kmh WSW 10.0 mph16.1 kmh 29.98 in1015.2 mb 0.00 in0.0 mm 0.00 in0.0 mm 0.00 in0.0 mm
12:21 AM 48.7°F9.3°C 47.7°F8.7°C 96% 5.0 mph WSW8.0 kmh WSW 10.0 mph16.1 kmh 29.98 in1015.2 mb 0.00 in0.0 mm 0.00 in0.0 mm 0.00 in0.0 mm
12:24 AM 48.7°F9.3°C 47.7°F8.7°C 96% 6.0 mph WSW9.7 kmh WSW 10.0 mph16.1 kmh 29.98 in1015.2 mb 0.00 in0.0 mm 0.00 in0.0 mm 0.00 in0.0 mm
12:27 AM 48.6°F9.2°C 47.5°F8.6°C 96% 5.0 mph WSW8.0 kmh WSW 10.0 mph16.1 kmh 29.98 in1015.2 mb 0.00 in0.0 mm 0.00 in0.0 mm 0.00 in0.0 mm
12:30 AM 48.6°F9.2°C 47.5°F8.6°C 96% 5.0 mph WSW8.0 kmh WSW 10.0 mph16.1 kmh 29.98 in1015.2 mb 0.00 in0.0 mm 0.00 in0.0 mm 0.00 in0.0 mm
12:33 AM 48.4°F9.1°C 47.3°F8.5°C 96% 5.0 mph WSW8.0 kmh WSW 10.0 mph16.1 kmh 29.98 in1015.2 mb 0.00 in0.0 mm 0.00 in0.0 mm 0.00 in0.0 mm
12:36 AM 48.4°F9.1°C 47.3°F8.5°C 96% 5.0 mph WSW8.0 kmh WSW 9.0 mph14.5 kmh 29.98 in1015.2 mb 0.00 in0.0 mm 0.00 in0.0 mm 0.00 in0.0 mm
12:39 AM 48.4°F9.1°C 47.3°F8.5°C 96% 5.0 mph WSW8.0 kmh WSW 9.0 mph14.5 kmh 29.98 in1015.2 mb 0.00 in0.0 mm 0.00 in0.0 mm 0.00 in0.0 mm
12:42 AM 48.4°F9.1°C 47.3°F8.5°C 96% 5.0 mph WSW8.0 kmh WSW 10.0 mph16.1 kmh 29.98 in1015.2 mb 0.00 in0.0 mm 0.00 in0.0 mm 0.00 in0.0 mm
12:45 AM 48.4°F9.1°C 47.3°F8.5°C 96% 6.0 mph WSW9.7 kmh WSW 12.0 mph19.3 kmh 29.98 in1015.2 mb 0.00 in0.0 mm 0.00 in0.0 mm 0.00 in0.0 mm
12:48 AM 48.4°F9.1°C 47.3°F8.5°C 96% 6.0 mph WSW9.7 kmh WSW 12.0 mph19.3 kmh 29.98 in1015.2 mb 0.01 in0.3 mm 0.20 in5.1 mm 0.01 in0.3 mm
12:51 AM 48.2°F9.0°C 47.1°F8.4°C 96% 5.0 mph WSW8.0 kmh WSW 12.0 mph19.3 kmh 29.98 in1015.2 mb 0.01 in0.3 mm 0.00 in0.0 mm 0.01 in0.3 mm
12:54 AM 48.2°F9.0°C 47.1°F8.4°C 96% 5.0 mph WSW8.0 kmh WSW 12.0 mph19.3 kmh 29.98 in1015.2 mb 0.01 in0.3 mm 0.00 in0.0 mm 0.01 in0.3 mm
12:57 AM 48.0°F8.9°C 46.9°F8.3°C 96% 4.0 mph WSW6.4 kmh WSW 8.0 mph12.9 kmh 29.98 in1015.2 mb 0.01 in0.3 mm 0.00 in0.0 mm 0.01 in0.3 mm
01:00 AM 48.0°F8.9°C 46.9°F8.3°C 96% 4.0 mph WSW6.4 kmh WSW 7.0 mph11.3 kmh 29.98 in1015.2 mb 0.01 in0.3 mm 0.00 in0.0 mm 0.01 in0.3 mm
01:03 AM 48.0°F8.9°C 46.9°F8.3°C 96% 4.0 mph WSW6.4 kmh WSW 8.0 mph12.9 kmh 29.98 in1015.2 mb 0.01 in0.3 mm 0.00 in0.0 mm 0.01 in0.3 mm
01:06 AM 48.0°F8.9°C 46.9°F8.3°C 96% 4.0 mph WSW6.4 kmh WSW 8.0 mph12.9 kmh 29.98 in1015.2 mb 0.01 in0.3 mm 0.00 in0.0 mm 0.01 in0.3 mm
01:09 AM 47.8°F8.8°C 46.8°F8.2°C 96% 4.0 mph WSW6.4 kmh WSW 8.0 mph12.9 kmh 29.98 in1015.2 mb 0.01 in0.3 mm 0.00 in0.0 mm 0.01 in0.3 mm
01:12 AM 47.8°F8.8°C 46.8°F8.2°C 96% 4.0 mph WSW6.4 kmh WSW 9.0 mph14.5 kmh 29.98 in1015.2 mb 0.01 in0.3 mm 0.00 in0.0 mm 0.01 in0.3 mm
01:15 AM 48.0°F8.9°C 46.9°F8.3°C 96% 4.0 mph WSW6.4 kmh WSW 9.0 mph14.5 kmh 29.99 in1015.6 mb 0.01 in0.3 mm 0.00 in0.0 mm 0.01 in0.3 mm
01:18 AM 48.0°F8.9°C 46.9°F8.3°C 96% 5.0 mph WSW8.0 kmh WSW 9.0 mph14.5 kmh 29.99 in1015.6 mb 0.01 in0.3 mm 0.00 in0.0 mm 0.01 in0.3 mm
01:21 AM 48.0°F8.9°C 46.9°F8.3°C 96% 5.0 mph WSW8.0 kmh WSW 9.0 mph14.5 kmh 29.99 in1015.6 mb 0.01 in0.3 mm 0.00 in0.0 mm 0.01 in0.3 mm
01:24 AM 48.0°F8.9°C 46.9°F8.3°C 96% 5.0 mph WSW8.0 kmh WSW 9.0 mph14.5 kmh 29.99 in1015.6 mb 0.01 in0.3 mm 0.00 in0.0 mm 0.01 in0.3 mm
01:27 AM 48.2°F9.0°C 47.1°F8.4°C 96% 5.0 mph WSW8.0 kmh WSW 9.0 mph14.5 kmh 29.99 in1015.6 mb 0.01 in0.3 mm 0.00 in0.0 mm 0.01 in0.3 mm
01:30 AM 48.2°F9.0°C 47.1°F8.4°C 96% 5.0 mph WSW8.0 kmh WSW 9.0 mph14.5 kmh 29.99 in1015.6 mb 0.01 in0.3 mm 0.00 in0.0 mm 0.01 in0.3 mm
01:33 AM 48.4°F9.1°C 47.3°F8.5°C 96% 4.0 mph WSW6.4 kmh WSW 7.0 mph11.3 kmh 29.99 in1015.6 mb 0.01 in0.3 mm 0.00 in0.0 mm 0.01 in0.3 mm
01:36 AM 48.4°F9.1°C 47.3°F8.5°C 96% 5.0 mph WSW8.0 kmh WSW 9.0 mph14.5 kmh 29.99 in1015.6 mb 0.01 in0.3 mm 0.00 in0.0 mm 0.01 in0.3 mm
01:39 AM 48.4°F9.1°C 47.3°F8.5°C 96% 5.0 mph WSW8.0 kmh WSW 9.0 mph14.5 kmh 29.99 in1015.6 mb 0.01 in0.3 mm 0.00 in0.0 mm 0.01 in0.3 mm
01:42 AM 48.4°F9.1°C 47.3°F8.5°C 96% 5.0 mph WSW8.0 kmh WSW 9.0 mph14.5 kmh 29.99 in1015.6 mb 0.01 in0.3 mm 0.00 in0.0 mm 0.01 in0.3 mm
01:45 AM 48.4°F9.1°C 47.3°F8.5°C 96% 5.0 mph WSW8.0 kmh WSW 9.0 mph14.5 kmh 29.99 in1015.6 mb 0.00 in0.0 mm 0.00 in0.0 mm 0.01 in0.3 mm
01:48 AM 48.4°F9.1°C 47.3°F8.5°C 96% 4.0 mph WSW6.4 kmh WSW 9.0 mph14.5 kmh 29.99 in1015.6 mb 0.00 in0.0 mm 0.00 in0.0 mm 0.01 in0.3 mm
01:51 AM 48.4°F9.1°C 47.3°F8.5°C 96% 4.0 mph WSW6.4 kmh WSW 8.0 mph12.9 kmh 29.99 in1015.6 mb 0.00 in0.0 mm 0.00 in0.0 mm 0.01 in0.3 mm
01:54 AM 48.4°F9.1°C 47.3°F8.5°C 96% 4.0 mph WSW6.4 kmh WSW 11.0 mph17.7 kmh 29.99 in1015.6 mb 0.00 in0.0 mm 0.00 in0.0 mm 0.01 in0.3 mm
01:57 AM 48.4°F9.1°C 47.3°F8.5°C 96% 5.0 mph WSW8.0 kmh WSW 11.0 mph17.7 kmh 29.98 in1015.2 mb 0.00 in0.0 mm 0.00 in0.0 mm 0.01 in0.3 mm
02:00 AM 48.4°F9.1°C 47.3°F8.5°C 96% 5.0 mph WSW8.0 kmh WSW 11.0 mph17.7 kmh 29.98 in1015.2 mb 0.00 in0.0 mm 0.00 in0.0 mm 0.01 in0.3 mm
02:03 AM 48.4°F9.1°C 47.3°F8.5°C 96% 5.0 mph WSW8.0 kmh WSW 9.0 mph14.5 kmh 29.98 in1015.2 mb 0.00 in0.0 mm 0.00 in0.0 mm 0.01 in0.3 mm
02:06 AM 48.6°F9.2°C 47.5°F8.6°C 96% 5.0 mph WSW8.0 kmh WSW 9.0 mph14.5 kmh 29.98 in1015.2 mb 0.00 in0.0 mm 0.00 in0.0 mm 0.01 in0.3 mm
02:09 AM 48.4°F9.1°C 47.3°F8.5°C 96% 5.0 mph WSW8.0 kmh WSW 9.0 mph14.5 kmh 29.98 in1015.2 mb 0.00 in0.0 mm 0.00 in0.0 mm 0.01 in0.3 mm
02:12 AM 48.4°F9.1°C 47.3°F8.5°C 96% 5.0 mph WSW8.0 kmh WSW 9.0 mph14.5 kmh 29.98 in1015.2 mb 0.00 in0.0 mm 0.00 in0.0 mm 0.01 in0.3 mm
02:15 AM 48.4°F9.1°C 47.3°F8.5°C 96% 5.0 mph WSW8.0 kmh WSW 9.0 mph14.5 kmh 29.99 in1015.6 mb 0.00 in0.0 mm 0.00 in0.0 mm 0.01 in0.3 mm
02:18 AM 48.4°F9.1°C 47.3°F8.5°C 96% 5.0 mph WSW8.0 kmh WSW 10.0 mph16.1 kmh 29.98 in1015.2 mb 0.00 in0.0 mm 0.00 in0.0 mm 0.01 in0.3 mm
02:21 AM 48.4°F9.1°C 47.3°F8.5°C 96% 6.0 mph WSW9.7 kmh WSW 10.0 mph16.1 kmh 29.98 in1015.2 mb 0.00 in0.0 mm 0.00 in0.0 mm 0.01 in0.3 mm
02:24 AM 48.4°F9.1°C 47.3°F8.5°C 96% 6.0 mph WSW9.7 kmh WSW 10.0 mph16.1 kmh 29.98 in1015.2 mb 0.00 in0.0 mm 0.00 in0.0 mm 0.01 in0.3 mm
02:27 AM 48.4°F9.1°C 47.3°F8.5°C 96% 5.0 mph WSW8.0 kmh WSW 10.0 mph16.1 kmh 29.98 in1015.2 mb 0.00 in0.0 mm 0.00 in0.0 mm 0.01 in0.3 mm
02:30 AM 48.4°F9.1°C 47.3°F8.5°C 96% 5.0 mph WSW8.0 kmh WSW 11.0 mph17.7 kmh 29.98 in1015.2 mb 0.00 in0.0 mm 0.00 in0.0 mm 0.01 in0.3 mm
02:33 AM 48.4°F9.1°C 47.3°F8.5°C 96% 5.0 mph WSW8.0 kmh WSW 11.0 mph17.7 kmh 29.98 in1015.2 mb 0.00 in0.0 mm 0.00 in0.0 mm 0.01 in0.3 mm
02:36 AM 48.4°F9.1°C 47.3°F8.5°C 96% 5.0 mph WSW8.0 kmh WSW 11.0 mph17.7 kmh 29.98 in1015.2 mb 0.00 in0.0 mm 0.00 in0.0 mm 0.01 in0.3 mm
02:39 AM 48.2°F9.0°C 47.1°F8.4°C 96% 5.0 mph WSW8.0 kmh WSW 11.0 mph17.7 kmh 29.98 in1015.2 mb 0.00 in0.0 mm 0.00 in0.0 mm 0.01 in0.3 mm
02:42 AM 48.0°F8.9°C 46.9°F8.3°C 96% 5.0 mph WSW8.0 kmh WSW 9.0 mph14.5 kmh 29.98 in1015.2 mb 0.00 in0.0 mm 0.00 in0.0 mm 0.01 in0.3 mm
02:45 AM 48.0°F8.9°C 46.9°F8.3°C 96% 5.0 mph WSW8.0 kmh WSW 9.0 mph14.5 kmh 29.98 in1015.2 mb 0.00 in0.0 mm 0.00 in0.0 mm 0.01 in0.3 mm
02:48 AM 48.0°F8.9°C 46.9°F8.3°C 96% 4.0 mph WSW6.4 kmh WSW 9.0 mph14.5 kmh 29.98 in1015.2 mb 0.00 in0.0 mm 0.00 in0.0 mm 0.01 in0.3 mm
02:51 AM 47.8°F8.8°C 46.8°F8.2°C 96% 4.0 mph WSW6.4 kmh WSW 9.0 mph14.5 kmh 29.98 in1015.2 mb 0.00 in0.0 mm 0.00 in0.0 mm 0.01 in0.3 mm
02:54 AM 47.8°F8.8°C 46.8°F8.2°C 96% 4.0 mph WSW6.4 kmh WSW 8.0 mph12.9 kmh 29.98 in1015.2 mb 0.00 in0.0 mm 0.00 in0.0 mm 0.01 in0.3 mm
02:57 AM 47.8°F8.8°C 46.8°F8.2°C 96% 4.0 mph WSW6.4 kmh WSW 8.0 mph12.9 kmh 29.98 in1015.2 mb 0.00 in0.0 mm 0.00 in0.0 mm 0.01 in0.3 mm
03:00 AM 47.8°F8.8°C 46.8°F8.2°C 96% 4.0 mph WSW6.4 kmh WSW 8.0 mph12.9 kmh 29.98 in1015.2 mb 0.00 in0.0 mm 0.00 in0.0 mm 0.01 in0.3 mm
03:03 AM 47.8°F8.8°C 46.8°F8.2°C 96% 4.0 mph WSW6.4 kmh WSW 8.0 mph12.9 kmh 29.98 in1015.2 mb 0.00 in0.0 mm 0.00 in0.0 mm 0.01 in0.3 mm
03:06 AM 47.8°F8.8°C 46.8°F8.2°C 96% 3.0 mph WSW4.8 kmh WSW 8.0 mph12.9 kmh 29.98 in1015.2 mb 0.00 in0.0 mm 0.00 in0.0 mm 0.01 in0.3 mm
03:09 AM 47.7°F8.7°C 46.6°F8.1°C 96% 3.0 mph WSW4.8 kmh WSW 8.0 mph12.9 kmh 29.98 in1015.2 mb 0.00 in0.0 mm 0.00 in0.0 mm 0.01 in0.3 mm
03:12 AM 47.7°F8.7°C 46.6°F8.1°C 96% 3.0 mph WSW4.8 kmh WSW 8.0 mph12.9 kmh 29.98 in1015.2 mb 0.00 in0.0 mm 0.00 in0.0 mm 0.01 in0.3 mm
03:15 AM 47.5°F8.6°C 46.4°F8.0°C 96% 4.0 mph WSW6.4 kmh WSW 7.0 mph11.3 kmh 29.99 in1015.6 mb 0.00 in0.0 mm 0.00 in0.0 mm 0.01 in0.3 mm
03:18 AM 47.3°F8.5°C 46.2°F7.9°C 96% 4.0 mph WSW6.4 kmh WSW 7.0 mph11.3 kmh 29.99 in1015.6 mb 0.00 in0.0 mm 0.00 in0.0 mm 0.01 in0.3 mm
03:21 AM 47.1°F8.4°C 46.0°F7.8°C 96% 4.0 mph WSW6.4 kmh WSW 7.0 mph11.3 kmh 29.99 in1015.6 mb 0.00 in0.0 mm 0.00 in0.0 mm 0.01 in0.3 mm
03:24 AM 47.3°F8.5°C 46.2°F7.9°C 96% 4.0 mph WSW6.4 kmh WSW 9.0 mph14.5 kmh 29.99 in1015.6 mb 0.00 in0.0 mm 0.00 in0.0 mm 0.01 in0.3 mm
03:27 AM 47.3°F8.5°C 46.6°F8.1°C 97% 4.0 mph WSW6.4 kmh WSW 9.0 mph14.5 kmh 29.99 in1015.6 mb 0.00 in0.0 mm 0.00 in0.0 mm 0.01 in0.3 mm
03:30 AM 47.5°F8.6°C 46.6°F8.1°C 97% 5.0 mph WSW8.0 kmh WSW 10.0 mph16.1 kmh 29.99 in1015.6 mb 0.00 in0.0 mm 0.00 in0.0 mm 0.01 in0.3 mm
03:33 AM 47.5°F8.6°C 46.8°F8.2°C 97% 5.0 mph WSW8.0 kmh WSW 10.0 mph16.1 kmh 29.99 in1015.6 mb 0.00 in0.0 mm 0.00 in0.0 mm 0.01 in0.3 mm
03:36 AM 47.5°F8.6°C 46.8°F8.2°C 97% 5.0 mph WSW8.0 kmh WSW 10.0 mph16.1 kmh 30.00 in1015.9 mb 0.00 in0.0 mm 0.00 in0.0 mm 0.01 in0.3 mm
03:39 AM 47.7°F8.7°C 46.8°F8.2°C 97% 5.0 mph WSW8.0 kmh WSW 10.0 mph16.1 kmh 30.00 in1015.9 mb 0.00 in0.0 mm 0.00 in0.0 mm 0.01 in0.3 mm
03:42 AM 47.7°F8.7°C 46.8°F8.2°C 97% 5.0 mph WSW8.0 kmh WSW 10.0 mph16.1 kmh 30.00 in1015.9 mb 0.00 in0.0 mm 0.00 in0.0 mm 0.01 in0.3 mm
03:45 AM 47.7°F8.7°C 46.8°F8.2°C 97% 5.0 mph WSW8.0 kmh WSW 10.0 mph16.1 kmh 30.00 in1015.9 mb 0.00 in0.0 mm 0.00 in0.0 mm 0.01 in0.3 mm
03:48 AM 47.7°F8.7°C 46.8°F8.2°C 97% 5.0 mph WSW8.0 kmh WSW 10.0 mph16.1 kmh 30.00 in1015.9 mb 0.00 in0.0 mm 0.00 in0.0 mm 0.01 in0.3 mm
03:51 AM 47.7°F8.7°C 46.8°F8.2°C 97% 5.0 mph WSW8.0 kmh WSW 10.0 mph16.1 kmh 30.00 in1015.9 mb 0.00 in0.0 mm 0.00 in0.0 mm 0.01 in0.3 mm
03:54 AM 47.7°F8.7°C 46.8°F8.2°C 97% 5.0 mph WSW8.0 kmh WSW 10.0 mph16.1 kmh 30.00 in1015.9 mb 0.00 in0.0 mm 0.00 in0.0 mm 0.01 in0.3 mm
03:57 AM 47.7°F8.7°C 46.8°F8.2°C 97% 5.0 mph WSW8.0 kmh WSW 10.0 mph16.1 kmh 30.00 in1015.9 mb 0.00 in0.0 mm 0.00 in0.0 mm 0.01 in0.3 mm
04:00 AM 47.7°F8.7°C 46.9°F8.3°C 97% 5.0 mph WSW8.0 kmh WSW 9.0 mph14.5 kmh 30.00 in1015.9 mb 0.00 in0.0 mm 0.00 in0.0 mm 0.01 in0.3 mm
04:03 AM 47.7°F8.7°C 46.8°F8.2°C 97% 5.0 mph WSW8.0 kmh WSW 9.0 mph14.5 kmh 30.00 in1015.9 mb 0.00 in0.0 mm 0.00 in0.0 mm 0.01 in0.3 mm
04:06 AM 47.7°F8.7°C 46.8°F8.2°C 97% 4.0 mph WSW6.4 kmh WSW 9.0 mph14.5 kmh 30.00 in1015.9 mb 0.00 in0.0 mm 0.00 in0.0 mm 0.01 in0.3 mm
04:09 AM 47.5°F8.6°C 46.8°F8.2°C 97% 4.0 mph WSW6.4 kmh WSW 9.0 mph14.5 kmh 30.00 in1015.9 mb 0.00 in0.0 mm 0.00 in0.0 mm 0.01 in0.3 mm
04:12 AM 47.5°F8.6°C 46.6°F8.1°C 97% 4.0 mph WSW6.4 kmh WSW 8.0 mph12.9 kmh 30.00 in1015.9 mb 0.00 in0.0 mm 0.00 in0.0 mm 0.01 in0.3 mm
04:15 AM 47.5°F8.6°C 46.8°F8.2°C 97% 4.0 mph WSW6.4 kmh WSW 8.0 mph12.9 kmh 30.01 in1016.3 mb 0.00 in0.0 mm 0.00 in0.0 mm 0.01 in0.3 mm
04:18 AM 47.5°F8.6°C 46.6°F8.1°C 97% 4.0 mph WSW6.4 kmh WSW 8.0 mph12.9 kmh 30.01 in1016.3 mb 0.00 in0.0 mm 0.00 in0.0 mm 0.01 in0.3 mm
04:21 AM 47.5°F8.6°C 46.6°F8.1°C 97% 4.0 mph WSW6.4 kmh WSW 8.0 mph12.9 kmh 30.01 in1016.3 mb 0.00 in0.0 mm 0.00 in0.0 mm 0.01 in0.3 mm
04:23 AM 47.4°F8.6°C 46.6°F8.1°C 97% 5.0 mph WSW8.0 kmh WSW 8.0 mph12.9 kmh 30.01 in1016.3 mb 0.00 in0.0 mm 0.00 in0.0 mm 0.01 in0.3 mm
04:24 AM 47.4°F8.6°C 46.6°F8.1°C 97% 5.0 mph WSW8.0 kmh WSW 8.0 mph12.9 kmh 30.01 in1016.3 mb 0.00 in0.0 mm 0.00 in0.0 mm 0.01 in0.3 mm
04:25 AM 47.4°F8.6°C 46.6°F8.1°C 97% 5.0 mph WSW8.0 kmh WSW 8.0 mph12.9 kmh 30.01 in1016.3 mb 0.00 in0.0 mm 0.00 in0.0 mm 0.01 in0.3 mm
04:27 AM 47.3°F8.5°C 46.6°F8.1°C 97% 4.0 mph WSW6.4 kmh WSW 8.0 mph12.9 kmh 30.01 in1016.3 mb 0.00 in0.0 mm 0.00 in0.0 mm 0.01 in0.3 mm
04:30 AM 47.3°F8.5°C 46.6°F8.1°C 97% 3.0 mph WSW4.8 kmh WSW 8.0 mph12.9 kmh 30.01 in1016.3 mb 0.00 in0.0 mm 0.00 in0.0 mm 0.01 in0.3 mm
04:33 AM 47.3°F8.5°C 46.6°F8.1°C 97% 3.0 mph WSW4.8 kmh WSW 7.0 mph11.3 kmh 30.01 in1016.3 mb 0.00 in0.0 mm 0.00 in0.0 mm 0.01 in0.3 mm
04:36 AM 47.3°F8.5°C 46.6°F8.1°C 97% 3.0 mph WSW4.8 kmh WSW 7.0 mph11.3 kmh 30.01 in1016.3 mb 0.00 in0.0 mm 0.00 in0.0 mm 0.01 in0.3 mm
04:39 AM 47.3°F8.5°C 46.6°F8.1°C 97% 3.0 mph WSW4.8 kmh WSW 7.0 mph11.3 kmh 30.01 in1016.3 mb 0.00 in0.0 mm 0.00 in0.0 mm 0.01 in0.3 mm
04:42 AM 47.3°F8.5°C 46.6°F8.1°C 97% 3.0 mph WSW4.8 kmh WSW 7.0 mph11.3 kmh 30.01 in1016.3 mb 0.00 in0.0 mm 0.00 in0.0 mm 0.01 in0.3 mm
04:45 AM 47.3°F8.5°C 46.6°F8.1°C 97% 3.0 mph WSW4.8 kmh WSW 7.0 mph11.3 kmh 30.01 in1016.3 mb 0.00 in0.0 mm 0.00 in0.0 mm 0.01 in0.3 mm
04:48 AM 47.3°F8.5°C 46.6°F8.1°C 97% 3.0 mph WSW4.8 kmh WSW 7.0 mph11.3 kmh 30.01 in1016.3 mb 0.00 in0.0 mm 0.00 in0.0 mm 0.01 in0.3 mm
04:51 AM 47.3°F8.5°C 46.6°F8.1°C 97% 3.0 mph WSW4.8 kmh WSW 7.0 mph11.3 kmh 30.01 in1016.3 mb 0.00 in0.0 mm 0.00 in0.0 mm 0.01 in0.3 mm
04:54 AM 47.3°F8.5°C 46.6°F8.1°C 97% 3.0 mph WSW4.8 kmh WSW 7.0 mph11.3 kmh 30.01 in1016.3 mb 0.00 in0.0 mm 0.00 in0.0 mm 0.01 in0.3 mm
04:57 AM 47.3°F8.5°C 46.6°F8.1°C 97% 3.0 mph WSW4.8 kmh WSW 7.0 mph11.3 kmh 30.01 in1016.3 mb 0.00 in0.0 mm 0.00 in0.0 mm 0.01 in0.3 mm
05:00 AM 47.3°F8.5°C 46.6°F8.1°C 97% 3.0 mph WSW4.8 kmh WSW 7.0 mph11.3 kmh 30.01 in1016.3 mb 0.00 in0.0 mm 0.00 in0.0 mm 0.01 in0.3 mm
05:03 AM 47.3°F8.5°C 46.6°F8.1°C 97% 3.0 mph WSW4.8 kmh WSW 7.0 mph11.3 kmh 30.01 in1016.3 mb 0.00 in0.0 mm 0.00 in0.0 mm 0.01 in0.3 mm
05:06 AM 47.3°F8.5°C 46.6°F8.1°C 97% 3.0 mph WSW4.8 kmh WSW 7.0 mph11.3 kmh 30.01 in1016.3 mb 0.00 in0.0 mm 0.00 in0.0 mm 0.01 in0.3 mm
05:09 AM 47.3°F8.5°C 46.6°F8.1°C 97% 3.0 mph WSW4.8 kmh WSW 7.0 mph11.3 kmh 30.02 in1016.6 mb 0.00 in0.0 mm 0.00 in0.0 mm 0.01 in0.3 mm
05:12 AM 47.3°F8.5°C 46.6°F8.1°C 97% 3.0 mph WSW4.8 kmh WSW 7.0 mph11.3 kmh 30.01 in1016.3 mb 0.00 in0.0 mm 0.00 in0.0 mm 0.01 in0.3 mm
05:15 AM 47.1°F8.4°C 46.4°F8.0°C 97% 3.0 mph WSW4.8 kmh WSW 7.0 mph11.3 kmh 30.01 in1016.3 mb 0.00 in0.0 mm 0.00 in0.0 mm 0.01 in0.3 mm
05:18 AM 47.3°F8.5°C 46.8°F8.2°C 98% 3.0 mph WSW4.8 kmh WSW 7.0 mph11.3 kmh 30.01 in1016.3 mb 0.00 in0.0 mm 0.00 in0.0 mm 0.01 in0.3 mm
05:21 AM 47.5°F8.6°C 46.9°F8.3°C 98% Calm Calm -- 30.01 in1016.3 mb 0.00 in0.0 mm 0.00 in0.0 mm 0.01 in0.3 mm
05:24 AM 47.5°F8.6°C 46.9°F8.3°C 98% Calm Calm -- 30.02 in1016.6 mb 0.00 in0.0 mm 0.00 in0.0 mm 0.01 in0.3 mm
05:27 AM 47.7°F8.7°C 47.1°F8.4°C 98% Calm Calm -- 30.02 in1016.6 mb 0.00 in0.0 mm 0.00 in0.0 mm 0.01 in0.3 mm
05:28 AM 47.8°F8.8°C 47.3°F8.5°C 98% Calm Calm 3.0 mph4.8 kmh 30.02 in1016.6 mb 0.00 in0.0 mm 0.00 in0.0 mm 0.01 in0.3 mm
05:29 AM 47.8°F8.8°C 47.3°F8.5°C 98% 1.0 mph WSW1.6 kmh WSW 3.0 mph4.8 kmh 30.02 in1016.6 mb 0.00 in0.0 mm 0.00 in0.0 mm 0.01 in0.3 mm
05:30 AM 47.8°F8.8°C 47.3°F8.5°C 98% 1.0 mph WSW1.6 kmh WSW 4.0 mph6.4 kmh 30.02 in1016.6 mb 0.00 in0.0 mm 0.00 in0.0 mm 0.01 in0.3 mm
05:31 AM 47.8°F8.8°C 47.3°F8.5°C 98% 1.0 mph WSW1.6 kmh WSW 4.0 mph6.4 kmh 30.02 in1016.6 mb 0.00 in0.0 mm 0.00 in0.0 mm 0.01 in0.3 mm
05:32 AM 47.8°F8.8°C 47.3°F8.5°C 98% 2.0 mph WSW3.2 kmh WSW 4.0 mph6.4 kmh 30.01 in1016.3 mb 0.00 in0.0 mm 0.00 in0.0 mm 0.01 in0.3 mm
05:33 AM 47.8°F8.8°C 47.3°F8.5°C 98% 2.0 mph WSW3.2 kmh WSW 4.0 mph6.4 kmh 30.01 in1016.3 mb 0.00 in0.0 mm 0.00 in0.0 mm 0.01 in0.3 mm
05:34 AM 47.8°F8.8°C 47.3°F8.5°C 98% 2.0 mph WSW3.2 kmh WSW 4.0 mph6.4 kmh 30.01 in1016.3 mb 0.00 in0.0 mm 0.00 in0.0 mm 0.01 in0.3 mm
05:39 AM 47.8°F8.8°C 47.3°F8.5°C 98% 2.0 mph WSW3.2 kmh WSW 4.0 mph6.4 kmh 30.01 in1016.3 mb 0.00 in0.0 mm 0.00 in0.0 mm 0.01 in0.3 mm
05:42 AM 47.8°F8.8°C 47.3°F8.5°C 98% 2.0 mph WSW3.2 kmh WSW 4.0 mph6.4 kmh 30.01 in1016.3 mb 0.00 in0.0 mm 0.00 in0.0 mm 0.01 in0.3 mm
05:45 AM 48.0°F8.9°C 47.5°F8.6°C 98% 2.0 mph WSW3.2 kmh WSW 4.0 mph6.4 kmh 30.01 in1016.3 mb 0.00 in0.0 mm 0.00 in0.0 mm 0.01 in0.3 mm
05:48 AM 48.0°F8.9°C 47.5°F8.6°C 98% 2.0 mph WSW3.2 kmh WSW 4.0 mph6.4 kmh 30.01 in1016.3 mb 0.00 in0.0 mm 0.00 in0.0 mm 0.01 in0.3 mm
05:51 AM 48.0°F8.9°C 47.5°F8.6°C 98% 2.0 mph WSW3.2 kmh WSW 4.0 mph6.4 kmh 30.01 in1016.3 mb 0.00 in0.0 mm 0.00 in0.0 mm 0.01 in0.3 mm
05:54 AM 48.0°F8.9°C 47.5°F8.6°C 98% 2.0 mph SW3.2 kmh SW 4.0 mph6.4 kmh 30.01 in1016.3 mb 0.00 in0.0 mm 0.00 in0.0 mm 0.01 in0.3 mm
05:57 AM 48.0°F8.9°C 47.5°F8.6°C 98% 2.0 mph SW3.2 kmh SW 4.0 mph6.4 kmh 30.02 in1016.6 mb 0.00 in0.0 mm 0.00 in0.0 mm 0.01 in0.3 mm
06:00 AM 47.8°F8.8°C 46.9°F8.3°C 97% 2.0 mph SW3.2 kmh SW 3.0 mph4.8 kmh 30.01 in1016.3 mb 0.00 in0.0 mm 0.00 in0.0 mm 0.01 in0.3 mm
06:03 AM 47.7°F8.7°C 46.8°F8.2°C 97% 1.0 mph SW1.6 kmh SW 3.0 mph4.8 kmh 30.01 in1016.3 mb 0.00 in0.0 mm 0.00 in0.0 mm 0.01 in0.3 mm
06:06 AM 47.5°F8.6°C 46.6°F8.1°C 97% 1.0 mph SW1.6 kmh SW 3.0 mph4.8 kmh 30.01 in1016.3 mb 0.00 in0.0 mm 0.00 in0.0 mm 0.01 in0.3 mm
06:09 AM 47.1°F8.4°C 46.4°F8.0°C 97% 1.0 mph SW1.6 kmh SW 3.0 mph4.8 kmh 30.02 in1016.6 mb 0.00 in0.0 mm 0.00 in0.0 mm 0.01 in0.3 mm
06:12 AM 46.9°F8.3°C 46.0°F7.8°C 97% 2.0 mph SW3.2 kmh SW 3.0 mph4.8 kmh 30.01 in1016.3 mb 0.00 in0.0 mm 0.00 in0.0 mm 0.01 in0.3 mm
06:15 AM 46.8°F8.2°C 45.7°F7.6°C 96% 2.0 mph SW3.2 kmh SW 6.0 mph9.7 kmh 30.01 in1016.3 mb 0.00 in0.0 mm 0.00 in0.0 mm 0.01 in0.3 mm
06:18 AM 46.4°F8.0°C 45.3°F7.4°C 96% 2.0 mph SW3.2 kmh SW 6.0 mph9.7 kmh 30.02 in1016.6 mb 0.00 in0.0 mm 0.00 in0.0 mm 0.01 in0.3 mm
06:21 AM 46.2°F7.9°C 45.5°F7.5°C 97% 2.0 mph SW3.2 kmh SW 6.0 mph9.7 kmh 30.01 in1016.3 mb 0.00 in0.0 mm 0.00 in0.0 mm 0.01 in0.3 mm
06:24 AM 46.4°F8.0°C 45.7°F7.6°C 97% 2.0 mph SW3.2 kmh SW 6.0 mph9.7 kmh 30.01 in1016.3 mb 0.00 in0.0 mm 0.00 in0.0 mm 0.01 in0.3 mm
06:27 AM 46.4°F8.0°C 45.7°F7.6°C 97% 2.0 mph SW3.2 kmh SW 6.0 mph9.7 kmh 30.01 in1016.3 mb 0.00 in0.0 mm 0.00 in0.0 mm 0.01 in0.3 mm
06:30 AM 46.4°F8.0°C 45.7°F7.6°C 97% 2.0 mph SW3.2 kmh SW 4.0 mph6.4 kmh 30.01 in1016.3 mb 0.00 in0.0 mm 0.00 in0.0 mm 0.01 in0.3 mm
06:33 AM 46.4°F8.0°C 45.7°F7.6°C 97% 2.0 mph SW3.2 kmh SW 4.0 mph6.4 kmh 30.01 in1016.3 mb 0.00 in0.0 mm 0.00 in0.0 mm 0.01 in0.3 mm
06:36 AM 46.6°F8.1°C 45.7°F7.6°C 97% 2.0 mph SW3.2 kmh SW 4.0 mph6.4 kmh 30.01 in1016.3 mb 0.00 in0.0 mm 0.00 in0.0 mm 0.01 in0.3 mm
06:39 AM 46.8°F8.2°C 46.2°F7.9°C 98% 2.0 mph SW3.2 kmh SW 4.0 mph6.4 kmh 30.01 in1016.3 mb 0.00 in0.0 mm 0.00 in0.0 mm 0.01 in0.3 mm
06:42 AM 46.9°F8.3°C 46.4°F8.0°C 98% 2.0 mph SW3.2 kmh SW 5.0 mph8.0 kmh 30.01 in1016.3 mb 0.00 in0.0 mm 0.00 in0.0 mm 0.01 in0.3 mm
06:45 AM 47.5°F8.6°C 46.9°F8.3°C 98% 3.0 mph SW4.8 kmh SW 5.0 mph8.0 kmh 30.01 in1016.3 mb 0.00 in0.0 mm 0.00 in0.0 mm 0.01 in0.3 mm
06:48 AM 47.8°F8.8°C 47.3°F8.5°C 98% 3.0 mph SW4.8 kmh SW 6.0 mph9.7 kmh 30.01 in1016.3 mb 0.00 in0.0 mm 0.00 in0.0 mm 0.01 in0.3 mm
06:51 AM 48.4°F9.1°C 47.8°F8.8°C 98% 3.0 mph SW4.8 kmh SW 6.0 mph9.7 kmh 30.01 in1016.3 mb 0.00 in0.0 mm 0.00 in0.0 mm 0.01 in0.3 mm
06:54 AM 48.6°F9.2°C 48.0°F8.9°C 98% 3.0 mph SW4.8 kmh SW 6.0 mph9.7 kmh 30.02 in1016.6 mb 0.00 in0.0 mm 0.00 in0.0 mm 0.01 in0.3 mm
06:57 AM 48.6°F9.2°C 48.0°F8.9°C 98% 2.0 mph SW3.2 kmh SW 6.0 mph9.7 kmh 30.02 in1016.6 mb 0.00 in0.0 mm 0.00 in0.0 mm 0.01 in0.3 mm
07:00 AM 48.6°F9.2°C 48.0°F8.9°C 98% 2.0 mph SW3.2 kmh SW 5.0 mph8.0 kmh 30.02 in1016.6 mb 0.00 in0.0 mm 0.00 in0.0 mm 0.01 in0.3 mm
07:03 AM 48.7°F9.3°C 48.2°F9.0°C 98% 2.0 mph SW3.2 kmh SW 5.0 mph8.0 kmh 30.02 in1016.6 mb 0.00 in0.0 mm 0.00 in0.0 mm 0.01 in0.3 mm
07:06 AM 48.7°F9.3°C 48.2°F9.0°C 98% 2.0 mph SW3.2 kmh SW 5.0 mph8.0 kmh 30.02 in1016.6 mb 0.00 in0.0 mm 0.00 in0.0 mm 0.01 in0.3 mm
07:09 AM 48.7°F9.3°C 48.2°F9.0°C 98% 2.0 mph SW3.2 kmh SW 5.0 mph8.0 kmh 30.02 in1016.6 mb 0.00 in0.0 mm 0.00 in0.0 mm 0.01 in0.3 mm
07:12 AM 48.9°F9.4°C 48.4°F9.1°C 98% 2.0 mph SW3.2 kmh SW 5.0 mph8.0 kmh 30.02 in1016.6 mb 0.00 in0.0 mm 0.00 in0.0 mm 0.01 in0.3 mm
07:15 AM 48.9°F9.4°C 48.4°F9.1°C 98% 2.0 mph SSW3.2 kmh SSW 9.0 mph14.5 kmh 30.01 in1016.3 mb 0.00 in0.0 mm 0.00 in0.0 mm 0.01 in0.3 mm
07:18 AM 48.9°F9.4°C 48.4°F9.1°C 98% 3.0 mph S4.8 kmh S 9.0 mph14.5 kmh 30.02 in1016.6 mb 0.00 in0.0 mm 0.00 in0.0 mm 0.01 in0.3 mm
07:21 AM 48.9°F9.4°C 48.4°F9.1°C 98% 3.0 mph S4.8 kmh S 9.0 mph14.5 kmh 30.02 in1016.6 mb 0.00 in0.0 mm 0.00 in0.0 mm 0.01 in0.3 mm
07:24 AM 48.9°F9.4°C 48.4°F9.1°C 98% 3.0 mph S4.8 kmh S 8.0 mph12.9 kmh 30.02 in1016.6 mb 0.00 in0.0 mm 0.00 in0.0 mm 0.01 in0.3 mm
07:27 AM 48.9°F9.4°C 48.4°F9.1°C 98% 2.0 mph S3.2 kmh S 7.0 mph11.3 kmh 30.02 in1016.6 mb 0.00 in0.0 mm 0.00 in0.0 mm 0.01 in0.3 mm
07:30 AM 48.9°F9.4°C 48.4°F9.1°C 98% 3.0 mph S4.8 kmh S 6.0 mph9.7 kmh 30.02 in1016.6 mb 0.00 in0.0 mm 0.00 in0.0 mm 0.01 in0.3 mm
07:33 AM 49.3°F9.6°C 48.7°F9.3°C 98% 3.0 mph S4.8 kmh S 8.0 mph12.9 kmh 30.02 in1016.6 mb 0.00 in0.0 mm 0.00 in0.0 mm 0.01 in0.3 mm
07:36 AM 49.5°F9.7°C 48.9°F9.4°C 98% 3.0 mph S4.8 kmh S 8.0 mph12.9 kmh 30.02 in1016.6 mb 0.00 in0.0 mm 0.00 in0.0 mm 0.01 in0.3 mm
07:39 AM 49.8°F9.9°C 49.3°F9.6°C 98% 3.0 mph S4.8 kmh S 8.0 mph12.9 kmh 30.02 in1016.6 mb 0.00 in0.0 mm 0.00 in0.0 mm 0.01 in0.3 mm
07:42 AM 50.0°F10.0°C 49.5°F9.7°C 98% 3.0 mph SSW4.8 kmh SSW 8.0 mph12.9 kmh 30.02 in1016.6 mb 0.00 in0.0 mm 0.00 in0.0 mm 0.01 in0.3 mm
07:45 AM 50.2°F10.1°C 49.6°F9.8°C 98% 3.0 mph SSW4.8 kmh SSW 6.0 mph9.7 kmh 30.02 in1016.6 mb 0.00 in0.0 mm 0.00 in0.0 mm 0.01 in0.3 mm
07:48 AM 50.2°F10.1°C 49.6°F9.8°C 98% 3.0 mph SSW4.8 kmh SSW 9.0 mph14.5 kmh 30.02 in1016.6 mb 0.00 in0.0 mm 0.00 in0.0 mm 0.01 in0.3 mm
07:51 AM 50.4°F10.2°C 49.8°F9.9°C 98% 3.0 mph SSW4.8 kmh SSW 9.0 mph14.5 kmh 30.02 in1016.6 mb 0.00 in0.0 mm 0.00 in0.0 mm 0.01 in0.3 mm
07:54 AM 50.5°F10.3°C 50.0°F10.0°C 98% 3.0 mph SSW4.8 kmh SSW 9.0 mph14.5 kmh 30.02 in1016.6 mb 0.00 in0.0 mm 0.00 in0.0 mm 0.01 in0.3 mm
07:57 AM 50.7°F10.4°C 50.2°F10.1°C 98% 3.0 mph SSW4.8 kmh SSW 7.0 mph11.3 kmh 30.02 in1016.6 mb 0.00 in0.0 mm 0.00 in0.0 mm 0.01 in0.3 mm
08:00 AM 50.9°F10.5°C 50.4°F10.2°C 98% 3.0 mph SSW4.8 kmh SSW 9.0 mph14.5 kmh 30.02 in1016.6 mb 0.00 in0.0 mm 0.00 in0.0 mm 0.01 in0.3 mm
08:03 AM 51.1°F10.6°C 50.5°F10.3°C 98% 3.0 mph SSW4.8 kmh SSW 9.0 mph14.5 kmh 30.03 in1016.9 mb 0.00 in0.0 mm 0.00 in0.0 mm 0.01 in0.3 mm
08:06 AM 51.1°F10.6°C 50.5°F10.3°C 98% 3.0 mph SSW4.8 kmh SSW 9.0 mph14.5 kmh 30.03 in1016.9 mb 0.00 in0.0 mm 0.00 in0.0 mm 0.01 in0.3 mm
08:09 AM 51.3°F10.7°C 50.7°F10.4°C 98% 3.0 mph SSW4.8 kmh SSW 7.0 mph11.3 kmh 30.03 in1016.9 mb 0.00 in0.0 mm 0.00 in0.0 mm 0.01 in0.3 mm
08:12 AM 51.4°F10.8°C 50.9°F10.5°C 98% 2.0 mph SSW3.2 kmh SSW 7.0 mph11.3 kmh 30.03 in1016.9 mb 0.00 in0.0 mm 0.00 in0.0 mm 0.01 in0.3 mm
08:15 AM 51.6°F10.9°C 51.1°F10.6°C 98% 3.0 mph SSW4.8 kmh SSW 7.0 mph11.3 kmh 30.03 in1016.9 mb 0.00 in0.0 mm 0.00 in0.0 mm 0.01 in0.3 mm
08:18 AM 51.6°F10.9°C 51.1°F10.6°C 98% 3.0 mph SSW4.8 kmh SSW 7.0 mph11.3 kmh 30.03 in1016.9 mb 0.00 in0.0 mm 0.00 in0.0 mm 0.01 in0.3 mm
08:21 AM 52.0°F11.1°C 51.4°F10.8°C 98% 3.0 mph S4.8 kmh S 9.0 mph14.5 kmh 30.03 in1016.9 mb 0.00 in0.0 mm 0.00 in0.0 mm 0.01 in0.3 mm
08:24 AM 52.0°F11.1°C 51.4°F10.8°C 98% 4.0 mph S6.4 kmh S 9.0 mph14.5 kmh 30.03 in1016.9 mb 0.00 in0.0 mm 0.00 in0.0 mm 0.01 in0.3 mm
08:27 AM 52.2°F11.2°C 51.6°F10.9°C 98% 3.0 mph S4.8 kmh S 9.0 mph14.5 kmh 30.03 in1016.9 mb 0.00 in0.0 mm 0.00 in0.0 mm 0.01 in0.3 mm
08:30 AM 52.3°F11.3°C 51.8°F11.0°C 98% 3.0 mph S4.8 kmh S 9.0 mph14.5 kmh 30.03 in1016.9 mb 0.00 in0.0 mm 0.00 in0.0 mm 0.01 in0.3 mm
08:33 AM 52.5°F11.4°C 52.0°F11.1°C 98% 3.0 mph S4.8 kmh S 8.0 mph12.9 kmh 30.03 in1016.9 mb 0.00 in0.0 mm 0.00 in0.0 mm 0.01 in0.3 mm
08:36 AM 52.7°F11.5°C 52.2°F11.2°C 98% 4.0 mph S6.4 kmh S 8.0 mph12.9 kmh 30.03 in1016.9 mb 0.00 in0.0 mm 0.00 in0.0 mm 0.01 in0.3 mm
08:39 AM 52.9°F11.6°C 52.3°F11.3°C 98% 4.0 mph S6.4 kmh S 9.0 mph14.5 kmh 30.03 in1016.9 mb 0.00 in0.0 mm 0.00 in0.0 mm 0.01 in0.3 mm
08:42 AM 53.1°F11.7°C 52.5°F11.4°C 98% 6.0 mph S9.7 kmh S 13.0 mph20.9 kmh 30.03 in1016.9 mb 0.00 in0.0 mm 0.00 in0.0 mm 0.01 in0.3 mm
08:45 AM 53.2°F11.8°C 52.7°F11.5°C 98% 7.0 mph S11.3 kmh S 13.0 mph20.9 kmh 30.03 in1016.9 mb 0.00 in0.0 mm 0.00 in0.0 mm 0.01 in0.3 mm
08:48 AM 53.2°F11.8°C 52.7°F11.5°C 98% 8.0 mph S12.9 kmh S 14.0 mph22.5 kmh 30.03 in1016.9 mb 0.00 in0.0 mm 0.00 in0.0 mm 0.01 in0.3 mm
08:51 AM 53.4°F11.9°C 52.9°F11.6°C 98% 8.0 mph S12.9 kmh S 14.0 mph22.5 kmh 30.03 in1016.9 mb 0.00 in0.0 mm 0.00 in0.0 mm 0.01 in0.3 mm
08:54 AM 53.4°F11.9°C 52.9°F11.6°C 98% 9.0 mph S14.5 kmh S 14.0 mph22.5 kmh 30.02 in1016.6 mb 0.00 in0.0 mm 0.00 in0.0 mm 0.01 in0.3 mm
08:57 AM 53.4°F11.9°C 52.9°F11.6°C 98% 9.0 mph S14.5 kmh S 16.0 mph25.7 kmh 30.02 in1016.6 mb 0.00 in0.0 mm 0.00 in0.0 mm 0.01 in0.3 mm
09:00 AM 53.6°F12.0°C 53.1°F11.7°C 98% 10.0 mph S16.1 kmh S 17.0 mph27.4 kmh 30.02 in1016.6 mb 0.00 in0.0 mm 0.00 in0.0 mm 0.01 in0.3 mm
09:03 AM 53.8°F12.1°C 53.1°F11.7°C 98% 10.0 mph S16.1 kmh S 17.0 mph27.4 kmh 30.02 in1016.6 mb 0.00 in0.0 mm 0.00 in0.0 mm 0.01 in0.3 mm
09:06 AM 54.0°F12.2°C 53.1°F11.7°C 97% 10.0 mph S16.1 kmh S 17.0 mph27.4 kmh 30.02 in1016.6 mb 0.00 in0.0 mm 0.00 in0.0 mm 0.01 in0.3 mm
09:09 AM 54.0°F12.2°C 53.2°F11.8°C 97% 10.0 mph S16.1 kmh S 17.0 mph27.4 kmh 30.02 in1016.6 mb 0.00 in0.0 mm 0.00 in0.0 mm 0.01 in0.3 mm
09:12 AM 54.1°F12.3°C 53.2°F11.8°C 97% 9.0 mph S14.5 kmh S 16.0 mph25.7 kmh 30.02 in1016.6 mb 0.00 in0.0 mm 0.00 in0.0 mm 0.01 in0.3 mm
09:15 AM 54.1°F12.3°C 53.4°F11.9°C 97% 9.0 mph S14.5 kmh S 17.0 mph27.4 kmh 30.02 in1016.6 mb 0.00 in0.0 mm 0.00 in0.0 mm 0.01 in0.3 mm
09:18 AM 54.3°F12.4°C 53.4°F11.9°C 97% 10.0 mph S16.1 kmh S 17.0 mph27.4 kmh 30.02 in1016.6 mb 0.00 in0.0 mm 0.00 in0.0 mm 0.01 in0.3 mm
09:21 AM 54.5°F12.5°C 53.6°F12.0°C 97% 10.0 mph S16.1 kmh S 17.0 mph27.4 kmh 30.02 in1016.6 mb 0.00 in0.0 mm 0.00 in0.0 mm 0.01 in0.3 mm
09:24 AM 54.7°F12.6°C 53.8°F12.1°C 97% 10.0 mph S16.1 kmh S 17.0 mph27.4 kmh 30.03 in1016.9 mb 0.00 in0.0 mm 0.00 in0.0 mm 0.01 in0.3 mm
09:27 AM 54.9°F12.7°C 54.1°F12.3°C 97% 9.0 mph S14.5 kmh S 14.0 mph22.5 kmh 30.03 in1016.9 mb 0.00 in0.0 mm 0.00 in0.0 mm 0.01 in0.3 mm
09:30 AM 55.0°F12.8°C 54.1°F12.3°C 97% 10.0 mph S16.1 kmh S 15.0 mph24.1 kmh 30.03 in1016.9 mb 0.00 in0.0 mm 0.00 in0.0 mm 0.01 in0.3 mm
09:33 AM 55.0°F12.8°C 54.3°F12.4°C 97% 10.0 mph S16.1 kmh S 16.0 mph25.7 kmh 30.03 in1016.9 mb 0.00 in0.0 mm 0.00 in0.0 mm 0.01 in0.3 mm
09:36 AM 55.0°F12.8°C 54.0°F12.2°C 96% 10.0 mph S16.1 kmh S 17.0 mph27.4 kmh 30.03 in1016.9 mb 0.00 in0.0 mm 0.00 in0.0 mm 0.01 in0.3 mm
09:39 AM 55.2°F12.9°C 54.1°F12.3°C 96% 11.0 mph S17.7 kmh S 17.0 mph27.4 kmh 30.03 in1016.9 mb 0.00 in0.0 mm 0.00 in0.0 mm 0.01 in0.3 mm
09:42 AM 55.2°F12.9°C 54.1°F12.3°C 96% 10.0 mph S16.1 kmh S 17.0 mph27.4 kmh 30.03 in1016.9 mb 0.00 in0.0 mm 0.00 in0.0 mm 0.01 in0.3 mm
09:45 AM 55.4°F13.0°C 54.3°F12.4°C 96% 11.0 mph S17.7 kmh S 22.0 mph35.4 kmh 30.03 in1016.9 mb 0.00 in0.0 mm 0.00 in0.0 mm 0.01 in0.3 mm
09:48 AM 55.2°F12.9°C 54.0°F12.2°C 95% 11.0 mph S17.7 kmh S 22.0 mph35.4 kmh 30.03 in1016.9 mb 0.00 in0.0 mm 0.00 in0.0 mm 0.01 in0.3 mm
09:51 AM 55.4°F13.0°C 54.0°F12.2°C 95% 11.0 mph S17.7 kmh S 22.0 mph35.4 kmh 30.03 in1016.9 mb 0.00 in0.0 mm 0.00 in0.0 mm 0.01 in0.3 mm
09:54 AM 55.6°F13.1°C 53.8°F12.1°C 94% 10.0 mph S16.1 kmh S 22.0 mph35.4 kmh 30.03 in1016.9 mb 0.00 in0.0 mm 0.00 in0.0 mm 0.01 in0.3 mm
09:57 AM 55.6°F13.1°C 53.8°F12.1°C 94% 9.0 mph S14.5 kmh S 22.0 mph35.4 kmh 30.03 in1016.9 mb 0.00 in0.0 mm 0.00 in0.0 mm 0.01 in0.3 mm
10:00 AM 55.6°F13.1°C 53.4°F11.9°C 93% 8.0 mph SSW12.9 kmh SSW 19.0 mph30.6 kmh 30.03 in1016.9 mb 0.00 in0.0 mm 0.00 in0.0 mm 0.01 in0.3 mm
10:03 AM 55.6°F13.1°C 53.6°F12.0°C 93% 7.0 mph SSW11.3 kmh SSW 19.0 mph30.6 kmh 30.03 in1016.9 mb 0.00 in0.0 mm 0.00 in0.0 mm 0.01 in0.3 mm
10:06 AM 55.8°F13.2°C 53.8°F12.1°C 93% 6.0 mph SSW9.7 kmh SSW 19.0 mph30.6 kmh 30.03 in1016.9 mb 0.00 in0.0 mm 0.00 in0.0 mm 0.01 in0.3 mm
10:09 AM 55.8°F13.2°C 53.4°F11.9°C 92% 6.0 mph SSW9.7 kmh SSW 13.0 mph20.9 kmh 30.03 in1016.9 mb 0.00 in0.0 mm 0.00 in0.0 mm 0.01 in0.3 mm
10:12 AM 55.8°F13.2°C 53.6°F12.0°C 92% 6.0 mph S9.7 kmh S 11.0 mph17.7 kmh 30.03 in1016.9 mb 0.00 in0.0 mm 0.00 in0.0 mm 0.01 in0.3 mm
10:15 AM 55.9°F13.3°C 53.6°F12.0°C 92% 7.0 mph S11.3 kmh S 12.0 mph19.3 kmh 30.03 in1016.9 mb 0.00 in0.0 mm 0.00 in0.0 mm 0.01 in0.3 mm
10:18 AM 55.9°F13.3°C 53.2°F11.8°C 91% 7.0 mph S11.3 kmh S 15.0 mph24.1 kmh 30.03 in1016.9 mb 0.00 in0.0 mm 0.00 in0.0 mm 0.01 in0.3 mm
10:21 AM 55.9°F13.3°C 53.4°F11.9°C 91% 8.0 mph S12.9 kmh S 15.0 mph24.1 kmh 30.03 in1016.9 mb 0.00 in0.0 mm 0.00 in0.0 mm 0.01 in0.3 mm
10:24 AM 55.9°F13.3°C 53.1°F11.7°C 90% 8.0 mph S12.9 kmh S 17.0 mph27.4 kmh 30.03 in1016.9 mb 0.00 in0.0 mm 0.00 in0.0 mm 0.01 in0.3 mm
10:27 AM 55.9°F13.3°C 52.9°F11.6°C 89% 8.0 mph S12.9 kmh S 17.0 mph27.4 kmh 30.03 in1016.9 mb 0.00 in0.0 mm 0.00 in0.0 mm 0.01 in0.3 mm
10:30 AM 56.1°F13.4°C 52.9°F11.6°C 89% 9.0 mph S14.5 kmh S 17.0 mph27.4 kmh 30.03 in1016.9 mb 0.00 in0.0 mm 0.00 in0.0 mm 0.01 in0.3 mm
10:33 AM 56.5°F13.6°C 53.2°F11.8°C 89% 8.0 mph S12.9 kmh S 17.0 mph27.4 kmh 30.03 in1016.9 mb 0.00 in0.0 mm 0.00 in0.0 mm 0.01 in0.3 mm
10:36 AM 56.5°F13.6°C 53.1°F11.7°C 88% 8.0 mph S12.9 kmh S 17.0 mph27.4 kmh 30.03 in1016.9 mb 0.00 in0.0 mm 0.00 in0.0 mm 0.01 in0.3 mm
10:39 AM 56.8°F13.8°C 53.2°F11.8°C 88% 7.0 mph SSW11.3 kmh SSW 17.0 mph27.4 kmh 30.03 in1016.9 mb 0.00 in0.0 mm 0.00 in0.0 mm 0.01 in0.3 mm
10:42 AM 57.0°F13.9°C 53.6°F12.0°C 88% 7.0 mph SSW11.3 kmh SSW 15.0 mph24.1 kmh 30.03 in1016.9 mb 0.00 in0.0 mm 0.00 in0.0 mm 0.01 in0.3 mm
10:45 AM 57.4°F14.1°C 53.8°F12.1°C 88% 7.0 mph SW11.3 kmh SW 14.0 mph22.5 kmh 30.03 in1016.9 mb 0.00 in0.0 mm 0.00 in0.0 mm 0.01 in0.3 mm
10:48 AM 57.6°F14.2°C 53.6°F12.0°C 87% 6.0 mph SW9.7 kmh SW 14.0 mph22.5 kmh 30.03 in1016.9 mb 0.00 in0.0 mm 0.00 in0.0 mm 0.01 in0.3 mm
10:51 AM 57.7°F14.3°C 53.6°F12.0°C 86% 6.0 mph SW9.7 kmh SW 11.0 mph17.7 kmh 30.03 in1016.9 mb 0.00 in0.0 mm 0.00 in0.0 mm 0.01 in0.3 mm
10:54 AM 57.9°F14.4°C 53.8°F12.1°C 86% 6.0 mph SSW9.7 kmh SSW 15.0 mph24.1 kmh 30.03 in1016.9 mb 0.00 in0.0 mm 0.00 in0.0 mm 0.01 in0.3 mm
10:57 AM 57.7°F14.3°C 53.2°F11.8°C 85% 7.0 mph S11.3 kmh S 17.0 mph27.4 kmh 30.03 in1016.9 mb 0.00 in0.0 mm 0.00 in0.0 mm 0.01 in0.3 mm
11:00 AM 57.9°F14.4°C 53.6°F12.0°C 85% 8.0 mph S12.9 kmh S 17.0 mph27.4 kmh 30.03 in1016.9 mb 0.00 in0.0 mm 0.00 in0.0 mm 0.01 in0.3 mm
11:03 AM 58.5°F14.7°C 54.0°F12.2°C 85% 8.0 mph S12.9 kmh S 17.0 mph27.4 kmh 30.03 in1016.9 mb 0.00 in0.0 mm 0.00 in0.0 mm 0.01 in0.3 mm
11:06 AM 58.5°F14.7°C 54.0°F12.2°C 85% 7.0 mph SSW11.3 kmh SSW 13.0 mph20.9 kmh 30.04 in1017.3 mb 0.00 in0.0 mm 0.00 in0.0 mm 0.01 in0.3 mm
11:09 AM 58.5°F14.7°C 53.6°F12.0°C 84% 6.0 mph SSW9.7 kmh SSW 11.0 mph17.7 kmh 30.04 in1017.3 mb 0.00 in0.0 mm 0.00 in0.0 mm 0.01 in0.3 mm
11:12 AM 58.6°F14.8°C 54.1°F12.3°C 85% 6.0 mph SSW9.7 kmh SSW 12.0 mph19.3 kmh 30.04 in1017.3 mb 0.00 in0.0 mm 0.00 in0.0 mm 0.01 in0.3 mm
11:15 AM 58.8°F14.9°C 54.0°F12.2°C 84% 7.0 mph SSW11.3 kmh SSW 16.0 mph25.7 kmh 30.04 in1017.3 mb 0.00 in0.0 mm 0.00 in0.0 mm 0.01 in0.3 mm
11:18 AM 58.6°F14.8°C 54.0°F12.2°C 84% 7.0 mph SSW11.3 kmh SSW 16.0 mph25.7 kmh 30.03 in1016.9 mb 0.00 in0.0 mm 0.00 in0.0 mm 0.01 in0.3 mm
11:21 AM 58.8°F14.9°C 54.1°F12.3°C 84% 8.0 mph S12.9 kmh S 18.0 mph29.0 kmh 30.03 in1016.9 mb 0.00 in0.0 mm 0.00 in0.0 mm 0.01 in0.3 mm
11:24 AM 58.8°F14.9°C 54.1°F12.3°C 84% 9.0 mph S14.5 kmh S 18.0 mph29.0 kmh 30.03 in1016.9 mb 0.00 in0.0 mm 0.00 in0.0 mm 0.01 in0.3 mm
11:27 AM 59.0°F15.0°C 54.1°F12.3°C 84% 11.0 mph S17.7 kmh S 22.0 mph35.4 kmh 30.03 in1016.9 mb 0.00 in0.0 mm 0.00 in0.0 mm 0.01 in0.3 mm
11:30 AM 59.2°F15.1°C 54.7°F12.6°C 85% 12.0 mph S19.3 kmh S 22.0 mph35.4 kmh 30.03 in1016.9 mb 0.00 in0.0 mm 0.00 in0.0 mm 0.01 in0.3 mm
11:33 AM 59.4°F15.2°C 54.9°F12.7°C 85% 13.0 mph S20.9 kmh S 23.0 mph37.0 kmh 30.03 in1016.9 mb 0.00 in0.0 mm 0.00 in0.0 mm 0.01 in0.3 mm
11:36 AM 59.5°F15.3°C 55.0°F12.8°C 85% 13.0 mph S20.9 kmh S 23.0 mph37.0 kmh 30.03 in1016.9 mb 0.00 in0.0 mm 0.00 in0.0 mm 0.01 in0.3 mm
11:39 AM 59.4°F15.2°C 54.9°F12.7°C 85% 13.0 mph S20.9 kmh S 23.0 mph37.0 kmh 30.03 in1016.9 mb 0.00 in0.0 mm 0.00 in0.0 mm 0.01 in0.3 mm
11:42 AM 59.2°F15.1°C 54.7°F12.6°C 85% 13.0 mph S20.9 kmh S 22.0 mph35.4 kmh 30.02 in1016.6 mb 0.00 in0.0 mm 0.00 in0.0 mm 0.01 in0.3 mm
11:45 AM 59.0°F15.0°C 54.5°F12.5°C 85% 14.0 mph S22.5 kmh S 26.0 mph41.8 kmh 30.02 in1016.6 mb 0.00 in0.0 mm 0.00 in0.0 mm 0.01 in0.3 mm
11:48 AM 58.8°F14.9°C 54.7°F12.6°C 86% 15.0 mph S24.1 kmh S 26.0 mph41.8 kmh 30.02 in1016.6 mb 0.00 in0.0 mm 0.00 in0.0 mm 0.01 in0.3 mm
11:51 AM 58.8°F14.9°C 54.7°F12.6°C 86% 14.0 mph S22.5 kmh S 26.0 mph41.8 kmh 30.02 in1016.6 mb 0.00 in0.0 mm 0.00 in0.0 mm 0.01 in0.3 mm
11:54 AM 59.2°F15.1°C 55.2°F12.9°C 87% 13.0 mph S20.9 kmh S 26.0 mph41.8 kmh 30.02 in1016.6 mb 0.00 in0.0 mm 0.00 in0.0 mm 0.01 in0.3 mm
11:57 AM 59.2°F15.1°C 55.4°F13.0°C 87% 10.0 mph S16.1 kmh S 24.0 mph38.6 kmh 30.02 in1016.6 mb 0.00 in0.0 mm 0.00 in0.0 mm 0.01 in0.3 mm
12:00 PM 59.4°F15.2°C 55.2°F12.9°C 86% 8.0 mph S12.9 kmh S 17.0 mph27.4 kmh 30.02 in1016.6 mb 0.00 in0.0 mm 0.00 in0.0 mm 0.01 in0.3 mm
12:03 PM 59.4°F15.2°C 55.2°F12.9°C 86% 9.0 mph S14.5 kmh S 22.0 mph35.4 kmh 30.02 in1016.6 mb 0.00 in0.0 mm 0.00 in0.0 mm 0.01 in0.3 mm
12:06 PM 59.4°F15.2°C 54.9°F12.7°C 85% 9.0 mph S14.5 kmh S 22.0 mph35.4 kmh 30.02 in1016.6 mb 0.00 in0.0 mm 0.00 in0.0 mm 0.01 in0.3 mm
12:09 PM 59.4°F15.2°C 54.9°F12.7°C 85% 10.0 mph S16.1 kmh S 22.0 mph35.4 kmh 30.02 in1016.6 mb 0.00 in0.0 mm 0.00 in0.0 mm 0.01 in0.3 mm
12:12 PM 59.7°F15.4°C 55.6°F13.1°C 86% 11.0 mph S17.7 kmh S 22.0 mph35.4 kmh 30.02 in1016.6 mb 0.00 in0.0 mm 0.00 in0.0 mm 0.01 in0.3 mm
12:15 PM 60.1°F15.6°C 56.3°F13.5°C 87% 11.0 mph S17.7 kmh S 18.0 mph29.0 kmh 30.01 in1016.3 mb 0.00 in0.0 mm 0.00 in0.0 mm 0.01 in0.3 mm
12:18 PM 60.3°F15.7°C 55.9°F13.3°C 86% 11.0 mph S17.7 kmh S 19.0 mph30.6 kmh 30.01 in1016.3 mb 0.00 in0.0 mm 0.00 in0.0 mm 0.01 in0.3 mm
12:21 PM 60.1°F15.6°C 55.4°F13.0°C 85% 11.0 mph S17.7 kmh S 19.0 mph30.6 kmh 30.01 in1016.3 mb 0.00 in0.0 mm 0.00 in0.0 mm 0.01 in0.3 mm
12:24 PM 59.5°F15.3°C 54.7°F12.6°C 84% 12.0 mph S19.3 kmh S 19.0 mph30.6 kmh 30.01 in1016.3 mb 0.00 in0.0 mm 0.00 in0.0 mm 0.01 in0.3 mm
12:27 PM 59.2°F15.1°C 54.7°F12.6°C 85% 12.0 mph S19.3 kmh S 19.0 mph30.6 kmh 30.00 in1015.9 mb 0.00 in0.0 mm 0.00 in0.0 mm 0.01 in0.3 mm
12:30 PM 59.0°F15.0°C 54.5°F12.5°C 85% 11.0 mph S17.7 kmh S 19.0 mph30.6 kmh 30.01 in1016.3 mb 0.00 in0.0 mm 0.00 in0.0 mm 0.01 in0.3 mm
12:33 PM 58.8°F14.9°C 54.3°F12.4°C 85% 10.0 mph S16.1 kmh S 19.0 mph30.6 kmh 30.01 in1016.3 mb 0.00 in0.0 mm 0.00 in0.0 mm 0.01 in0.3 mm
12:36 PM 58.8°F14.9°C 54.7°F12.6°C 86% 10.0 mph S16.1 kmh S 19.0 mph30.6 kmh 30.01 in1016.3 mb 0.00 in0.0 mm 0.00 in0.0 mm 0.01 in0.3 mm
12:39 PM 58.6°F14.8°C 54.5°F12.5°C 86% 10.0 mph S16.1 kmh S 16.0 mph25.7 kmh 30.01 in1016.3 mb 0.00 in0.0 mm 0.00 in0.0 mm 0.01 in0.3 mm
12:42 PM 58.6°F14.8°C 54.7°F12.6°C 87% 11.0 mph S17.7 kmh S 18.0 mph29.0 kmh 30.01 in1016.3 mb 0.00 in0.0 mm 0.00 in0.0 mm 0.01 in0.3 mm
12:45 PM 58.5°F14.7°C 55.0°F12.8°C 88% 11.0 mph S17.7 kmh S 18.0 mph29.0 kmh 30.00 in1015.9 mb 0.00 in0.0 mm 0.00 in0.0 mm 0.01 in0.3 mm
12:48 PM 58.3°F14.6°C 54.7°F12.6°C 88% 12.0 mph S19.3 kmh S 18.0 mph29.0 kmh 30.01 in1016.3 mb 0.00 in0.0 mm 0.00 in0.0 mm 0.01 in0.3 mm
12:51 PM 58.1°F14.5°C 54.5°F12.5°C 88% 14.0 mph S22.5 kmh S 18.0 mph29.0 kmh 30.00 in1015.9 mb 0.00 in0.0 mm 0.00 in0.0 mm 0.01 in0.3 mm
12:54 PM 57.9°F14.4°C 54.7°F12.6°C 89% 14.0 mph S22.5 kmh S 18.0 mph29.0 kmh 30.00 in1015.9 mb 0.00 in0.0 mm 0.00 in0.0 mm 0.01 in0.3 mm
12:57 PM 57.7°F14.3°C 54.5°F12.5°C 89% 14.0 mph S22.5 kmh S 18.0 mph29.0 kmh 30.00 in1015.9 mb 0.00 in0.0 mm 0.00 in0.0 mm 0.01 in0.3 mm
01:00 PM 57.7°F14.3°C 54.9°F12.7°C 90% 14.0 mph S22.5 kmh S 18.0 mph29.0 kmh 30.00 in1015.9 mb 0.00 in0.0 mm 0.00 in0.0 mm 0.01 in0.3 mm
01:03 PM 57.7°F14.3°C 54.9°F12.7°C 90% 14.0 mph S22.5 kmh S 18.0 mph29.0 kmh 30.00 in1015.9 mb 0.00 in0.0 mm 0.00 in0.0 mm 0.01 in0.3 mm
01:06 PM 57.6°F14.2°C 55.0°F12.8°C 91% 10.0 mph S16.1 kmh S 15.0 mph24.1 kmh 30.00 in1015.9 mb 0.00 in0.0 mm 0.00 in0.0 mm 0.01 in0.3 mm
01:09 PM 57.6°F14.2°C 54.9°F12.7°C 91% 10.0 mph S16.1 kmh S 15.0 mph24.1 kmh 30.00 in1015.9 mb 0.00 in0.0 mm 0.00 in0.0 mm 0.01 in0.3 mm
01:12 PM 57.4°F14.1°C 55.0°F12.8°C 92% 10.0 mph S16.1 kmh S 15.0 mph24.1 kmh 30.00 in1015.9 mb 0.00 in0.0 mm 0.00 in0.0 mm 0.01 in0.3 mm
01:15 PM 57.4°F14.1°C 55.0°F12.8°C 92% 10.0 mph S16.1 kmh S 18.0 mph29.0 kmh 29.99 in1015.6 mb 0.00 in0.0 mm 0.00 in0.0 mm 0.01 in0.3 mm
01:18 PM 57.4°F14.1°C 55.2°F12.9°C 93% 11.0 mph S17.7 kmh S 19.0 mph30.6 kmh 29.99 in1015.6 mb 0.00 in0.0 mm 0.00 in0.0 mm 0.01 in0.3 mm
01:21 PM 57.2°F14.0°C 55.2°F12.9°C 93% 12.0 mph S19.3 kmh S 19.0 mph30.6 kmh 29.99 in1015.6 mb 0.00 in0.0 mm 0.00 in0.0 mm 0.01 in0.3 mm
01:24 PM 57.0°F13.9°C 55.0°F12.8°C 93% 12.0 mph S19.3 kmh S 19.0 mph30.6 kmh 29.99 in1015.6 mb 0.00 in0.0 mm 0.00 in0.0 mm 0.01 in0.3 mm
01:27 PM 57.0°F13.9°C 55.4°F13.0°C 94% 12.0 mph S19.3 kmh S 19.0 mph30.6 kmh 29.99 in1015.6 mb 0.00 in0.0 mm 0.00 in0.0 mm 0.01 in0.3 mm
01:30 PM 57.0°F13.9°C 55.4°F13.0°C 94% 12.0 mph SSE19.3 kmh SSE 18.0 mph29.0 kmh 29.98 in1015.2 mb 0.00 in0.0 mm 0.00 in0.0 mm 0.01 in0.3 mm
01:33 PM 57.0°F13.9°C 55.8°F13.2°C 95% 12.0 mph SSE19.3 kmh SSE 20.0 mph32.2 kmh 29.98 in1015.2 mb 0.01 in0.3 mm 0.20 in5.1 mm 0.02 in0.5 mm
01:36 PM 57.0°F13.9°C 55.6°F13.1°C 95% 13.0 mph SSE20.9 kmh SSE 21.0 mph33.8 kmh 29.98 in1015.2 mb 0.01 in0.3 mm 0.00 in0.0 mm 0.02 in0.5 mm
01:39 PM 57.0°F13.9°C 55.8°F13.2°C 95% 14.0 mph SSE22.5 kmh SSE 21.0 mph33.8 kmh 29.98 in1015.2 mb 0.01 in0.3 mm 0.00 in0.0 mm 0.02 in0.5 mm
01:42 PM 57.0°F13.9°C 55.9°F13.3°C 96% 14.0 mph SSE22.5 kmh SSE 21.0 mph33.8 kmh 29.98 in1015.2 mb 0.02 in0.5 mm 0.20 in5.1 mm 0.02 in0.5 mm
01:45 PM 57.0°F13.9°C 55.9°F13.3°C 96% 14.0 mph SSE22.5 kmh SSE 21.0 mph33.8 kmh 29.98 in1015.2 mb 0.02 in0.5 mm 0.00 in0.0 mm 0.02 in0.5 mm
01:48 PM 57.0°F13.9°C 55.9°F13.3°C 96% 14.0 mph SSE22.5 kmh SSE 21.0 mph33.8 kmh 29.97 in1014.9 mb 0.02 in0.5 mm 0.00 in0.0 mm 0.02 in0.5 mm
01:51 PM 57.0°F13.9°C 55.9°F13.3°C 96% 14.0 mph SSE22.5 kmh SSE 21.0 mph33.8 kmh 29.97 in1014.9 mb 0.02 in0.5 mm 0.00 in0.0 mm 0.02 in0.5 mm
01:54 PM 57.0°F13.9°C 55.9°F13.3°C 96% 14.0 mph SSE22.5 kmh SSE 19.0 mph30.6 kmh 29.97 in1014.9 mb 0.02 in0.5 mm 0.00 in0.0 mm 0.02 in0.5 mm
01:57 PM 57.0°F13.9°C 55.9°F13.3°C 96% 14.0 mph SSE22.5 kmh SSE 19.0 mph30.6 kmh 29.97 in1014.9 mb 0.02 in0.5 mm 0.00 in0.0 mm 0.02 in0.5 mm
02:00 PM 57.0°F13.9°C 56.1°F13.4°C 97% 14.0 mph S22.5 kmh S 19.0 mph30.6 kmh 29.97 in1014.9 mb 0.02 in0.5 mm 0.00 in0.0 mm 0.02 in0.5 mm
02:03 PM 57.0°F13.9°C 56.1°F13.4°C 97% 14.0 mph S22.5 kmh S 23.0 mph37.0 kmh 29.97 in1014.9 mb 0.02 in0.5 mm 0.00 in0.0 mm 0.03 in0.8 mm
02:06 PM 57.0°F13.9°C 56.1°F13.4°C 97% 14.0 mph S22.5 kmh S 23.0 mph37.0 kmh 29.97 in1014.9 mb 0.02 in0.5 mm 0.00 in0.0 mm 0.03 in0.8 mm
02:09 PM 57.0°F13.9°C 56.3°F13.5°C 97% 15.0 mph S24.1 kmh S 23.0 mph37.0 kmh 29.97 in1014.9 mb 0.02 in0.5 mm 0.00 in0.0 mm 0.03 in0.8 mm
02:12 PM 57.0°F13.9°C 56.3°F13.5°C 97% 15.0 mph S24.1 kmh S 23.0 mph37.0 kmh 29.97 in1014.9 mb 0.02 in0.5 mm 0.00 in0.0 mm 0.03 in0.8 mm
02:15 PM 57.2°F14.0°C 56.3°F13.5°C 97% 14.0 mph S22.5 kmh S 23.0 mph37.0 kmh 29.96 in1014.6 mb 0.02 in0.5 mm 0.00 in0.0 mm 0.03 in0.8 mm
02:18 PM 57.4°F14.1°C 56.5°F13.6°C 97% 13.0 mph S20.9 kmh S 23.0 mph37.0 kmh 29.96 in1014.6 mb 0.02 in0.5 mm 0.00 in0.0 mm 0.03 in0.8 mm
02:21 PM 57.4°F14.1°C 56.8°F13.8°C 98% 12.0 mph S19.3 kmh S 23.0 mph37.0 kmh 29.96 in1014.6 mb 0.02 in0.5 mm 0.00 in0.0 mm 0.03 in0.8 mm
02:24 PM 57.6°F14.2°C 57.0°F13.9°C 98% 12.0 mph S19.3 kmh S 22.0 mph35.4 kmh 29.96 in1014.6 mb 0.02 in0.5 mm 0.00 in0.0 mm 0.03 in0.8 mm
02:27 PM 57.7°F14.3°C 57.2°F14.0°C 98% 13.0 mph S20.9 kmh S 22.0 mph35.4 kmh 29.96 in1014.6 mb 0.02 in0.5 mm 0.00 in0.0 mm 0.03 in0.8 mm
02:30 PM 57.7°F14.3°C 57.2°F14.0°C 98% 13.0 mph S20.9 kmh S 22.0 mph35.4 kmh 29.96 in1014.6 mb 0.02 in0.5 mm 0.00 in0.0 mm 0.03 in0.8 mm
02:33 PM 57.9°F14.4°C 57.4°F14.1°C 98% 13.0 mph S20.9 kmh S 22.0 mph35.4 kmh 29.95 in1014.2 mb 0.02 in0.5 mm 0.00 in0.0 mm 0.03 in0.8 mm
02:36 PM 58.3°F14.6°C 57.6°F14.2°C 98% 12.0 mph S19.3 kmh S 21.0 mph33.8 kmh 29.96 in1014.6 mb 0.02 in0.5 mm 0.00 in0.0 mm 0.03 in0.8 mm
02:39 PM 58.3°F14.6°C 57.7°F14.3°C 98% 12.0 mph S19.3 kmh S 21.0 mph33.8 kmh 29.95 in1014.2 mb 0.02 in0.5 mm 0.00 in0.0 mm 0.03 in0.8 mm
02:42 PM 58.5°F14.7°C 57.9°F14.4°C 98% 11.0 mph S17.7 kmh S 22.0 mph35.4 kmh 29.96 in1014.6 mb 0.01 in0.3 mm 0.00 in0.0 mm 0.03 in0.8 mm
02:45 PM 58.5°F14.7°C 57.9°F14.4°C 98% 11.0 mph S17.7 kmh S 22.0 mph35.4 kmh 29.95 in1014.2 mb 0.01 in0.3 mm 0.00 in0.0 mm 0.03 in0.8 mm
02:48 PM 58.5°F14.7°C 57.9°F14.4°C 98% 11.0 mph S17.7 kmh S 22.0 mph35.4 kmh 29.95 in1014.2 mb 0.01 in0.3 mm 0.00 in0.0 mm 0.03 in0.8 mm
02:51 PM 58.5°F14.7°C 57.9°F14.4°C 98% 11.0 mph S17.7 kmh S 22.0 mph35.4 kmh 29.95 in1014.2 mb 0.01 in0.3 mm 0.00 in0.0 mm 0.03 in0.8 mm
02:54 PM 58.5°F14.7°C 57.9°F14.4°C 98% 11.0 mph S17.7 kmh S 20.0 mph32.2 kmh 29.95 in1014.2 mb 0.01 in0.3 mm 0.00 in0.0 mm 0.03 in0.8 mm
02:57 PM 58.6°F14.8°C 58.1°F14.5°C 98% 11.0 mph S17.7 kmh S 20.0 mph32.2 kmh 29.95 in1014.2 mb 0.01 in0.3 mm 0.00 in0.0 mm 0.03 in0.8 mm
03:00 PM 58.6°F14.8°C 58.1°F14.5°C 98% 10.0 mph S16.1 kmh S 20.0 mph32.2 kmh 29.95 in1014.2 mb 0.01 in0.3 mm 0.00 in0.0 mm 0.03 in0.8 mm
03:03 PM 58.6°F14.8°C 58.1°F14.5°C 98% 9.0 mph S14.5 kmh S 20.0 mph32.2 kmh 29.95 in1014.2 mb 0.00 in0.0 mm 0.00 in0.0 mm 0.03 in0.8 mm
03:06 PM 58.6°F14.8°C 58.5°F14.7°C 99% 8.0 mph SSW12.9 kmh SSW 15.0 mph24.1 kmh 29.95 in1014.2 mb 0.00 in0.0 mm 0.00 in0.0 mm 0.03 in0.8 mm
03:09 PM 58.6°F14.8°C 58.5°F14.7°C 99% 7.0 mph SSW11.3 kmh SSW 15.0 mph24.1 kmh 29.95 in1014.2 mb 0.00 in0.0 mm 0.00 in0.0 mm 0.03 in0.8 mm
03:12 PM 58.6°F14.8°C 58.5°F14.7°C 99% 7.0 mph SSW11.3 kmh SSW 15.0 mph24.1 kmh 29.95 in1014.2 mb 0.00 in0.0 mm 0.00 in0.0 mm 0.03 in0.8 mm
03:15 PM 58.6°F14.8°C 58.5°F14.7°C 99% 8.0 mph SSW12.9 kmh SSW 19.0 mph30.6 kmh 29.95 in1014.2 mb 0.00 in0.0 mm 0.00 in0.0 mm 0.03 in0.8 mm
03:18 PM 58.6°F14.8°C 58.5°F14.7°C 99% 9.0 mph SSW14.5 kmh SSW 19.0 mph30.6 kmh 29.95 in1014.2 mb 0.00 in0.0 mm 0.00 in0.0 mm 0.03 in0.8 mm
03:21 PM 58.6°F14.8°C 58.5°F14.7°C 99% 10.0 mph S16.1 kmh S 19.0 mph30.6 kmh 29.95 in1014.2 mb 0.00 in0.0 mm 0.00 in0.0 mm 0.03 in0.8 mm
03:24 PM 58.6°F14.8°C 58.5°F14.7°C 99% 10.0 mph SSW16.1 kmh SSW 19.0 mph30.6 kmh 29.95 in1014.2 mb 0.00 in0.0 mm 0.00 in0.0 mm 0.03 in0.8 mm
03:27 PM 58.6°F14.8°C 58.5°F14.7°C 99% 10.0 mph SSW16.1 kmh SSW 19.0 mph30.6 kmh 29.95 in1014.2 mb 0.00 in0.0 mm 0.00 in0.0 mm 0.03 in0.8 mm
03:30 PM 58.6°F14.8°C 58.5°F14.7°C 99% 10.0 mph SSW16.1 kmh SSW 18.0 mph29.0 kmh 29.94 in1013.9 mb 0.00 in0.0 mm 0.00 in0.0 mm 0.03 in0.8 mm
03:33 PM 58.8°F14.9°C 58.5°F14.7°C 99% 9.0 mph SSW14.5 kmh SSW 17.0 mph27.4 kmh 29.94 in1013.9 mb 0.00 in0.0 mm 0.00 in0.0 mm 0.03 in0.8 mm
03:36 PM 58.8°F14.9°C 58.5°F14.7°C 99% 10.0 mph SSW16.1 kmh SSW 23.0 mph37.0 kmh 29.94 in1013.9 mb 0.00 in0.0 mm 0.00 in0.0 mm 0.03 in0.8 mm
03:39 PM 58.8°F14.9°C 58.6°F14.8°C 99% 10.0 mph SSW16.1 kmh SSW 23.0 mph37.0 kmh 29.94 in1013.9 mb 0.00 in0.0 mm 0.00 in0.0 mm 0.03 in0.8 mm
03:42 PM 58.8°F14.9°C 58.6°F14.8°C 99% 11.0 mph S17.7 kmh S 23.0 mph37.0 kmh 29.94 in1013.9 mb 0.00 in0.0 mm 0.00 in0.0 mm 0.03 in0.8 mm
03:45 PM 58.8°F14.9°C 58.6°F14.8°C 99% 11.0 mph S17.7 kmh S 22.0 mph35.4 kmh 29.94 in1013.9 mb 0.00 in0.0 mm 0.00 in0.0 mm 0.03 in0.8 mm
03:48 PM 58.8°F14.9°C 58.6°F14.8°C 99% 11.0 mph SSW17.7 kmh SSW 22.0 mph35.4 kmh 29.94 in1013.9 mb 0.00 in0.0 mm 0.00 in0.0 mm 0.03 in0.8 mm
03:51 PM 58.8°F14.9°C 58.6°F14.8°C 99% 11.0 mph SSW17.7 kmh SSW 19.0 mph30.6 kmh 29.94 in1013.9 mb 0.00 in0.0 mm 0.00 in0.0 mm 0.03 in0.8 mm
03:54 PM 59.0°F15.0°C 58.6°F14.8°C 99% 11.0 mph S17.7 kmh S 19.0 mph30.6 kmh 29.94 in1013.9 mb 0.00 in0.0 mm 0.00 in0.0 mm 0.03 in0.8 mm
03:57 PM 58.8°F14.9°C 58.6°F14.8°C 99% 10.0 mph SSW16.1 kmh SSW 18.0 mph29.0 kmh 29.94 in1013.9 mb 0.00 in0.0 mm 0.00 in0.0 mm 0.03 in0.8 mm
04:00 PM 58.8°F14.9°C 58.6°F14.8°C 99% 10.0 mph S16.1 kmh S 18.0 mph29.0 kmh 29.94 in1013.9 mb 0.00 in0.0 mm 0.00 in0.0 mm 0.03 in0.8 mm
04:03 PM 58.8°F14.9°C 58.6°F14.8°C 99% 10.0 mph S16.1 kmh S 20.0 mph32.2 kmh 29.94 in1013.9 mb 0.00 in0.0 mm 0.00 in0.0 mm 0.03 in0.8 mm
04:06 PM 58.8°F14.9°C 58.6°F14.8°C 99% 10.0 mph S16.1 kmh S 20.0 mph32.2 kmh 29.94 in1013.9 mb 0.01 in0.3 mm 0.20 in5.1 mm 0.04 in1.0 mm
04:09 PM 58.8°F14.9°C 58.6°F14.8°C 99% 11.0 mph S17.7 kmh S 24.0 mph38.6 kmh 29.94 in1013.9 mb 0.01 in0.3 mm 0.00 in0.0 mm 0.04 in1.0 mm
04:12 PM 58.8°F14.9°C 58.6°F14.8°C 99% 11.0 mph S17.7 kmh S 24.0 mph38.6 kmh 29.94 in1013.9 mb 0.01 in0.3 mm 0.00 in0.0 mm 0.04 in1.0 mm
04:15 PM 58.8°F14.9°C 58.6°F14.8°C 99% 10.0 mph SSW16.1 kmh SSW 24.0 mph38.6 kmh 29.94 in1013.9 mb 0.01 in0.3 mm 0.00 in0.0 mm 0.04 in1.0 mm
04:18 PM 58.8°F14.9°C 58.6°F14.8°C 99% 9.0 mph SSW14.5 kmh SSW 24.0 mph38.6 kmh 29.94 in1013.9 mb 0.01 in0.3 mm 0.00 in0.0 mm 0.04 in1.0 mm
04:21 PM 58.8°F14.9°C 58.6°F14.8°C 99% 9.0 mph SSW14.5 kmh SSW 21.0 mph33.8 kmh 29.94 in1013.9 mb 0.01 in0.3 mm 0.00 in0.0 mm 0.04 in1.0 mm
04:24 PM 58.8°F14.9°C 58.6°F14.8°C 99% 9.0 mph SSW14.5 kmh SSW 21.0 mph33.8 kmh 29.94 in1013.9 mb 0.01 in0.3 mm 0.00 in0.0 mm 0.04 in1.0 mm
04:27 PM 58.8°F14.9°C 58.5°F14.7°C 99% 9.0 mph SSW14.5 kmh SSW 19.0 mph30.6 kmh 29.94 in1013.9 mb 0.01 in0.3 mm 0.00 in0.0 mm 0.04 in1.0 mm
04:30 PM 58.8°F14.9°C 58.5°F14.7°C 99% 9.0 mph SSW14.5 kmh SSW 19.0 mph30.6 kmh 29.95 in1014.2 mb 0.01 in0.3 mm 0.00 in0.0 mm 0.04 in1.0 mm
04:33 PM 58.6°F14.8°C 58.5°F14.7°C 99% 9.0 mph SSW14.5 kmh SSW 19.0 mph30.6 kmh 29.94 in1013.9 mb 0.01 in0.3 mm 0.00 in0.0 mm 0.04 in1.0 mm
04:36 PM 58.8°F14.9°C 58.5°F14.7°C 99% 9.0 mph SSW14.5 kmh SSW 17.0 mph27.4 kmh 29.94 in1013.9 mb 0.01 in0.3 mm 0.00 in0.0 mm 0.04 in1.0 mm
04:39 PM 58.6°F14.8°C 58.5°F14.7°C 99% 10.0 mph SSW16.1 kmh SSW 24.0 mph38.6 kmh 29.94 in1013.9 mb 0.01 in0.3 mm 0.00 in0.0 mm 0.04 in1.0 mm
04:42 PM 58.8°F14.9°C 58.5°F14.7°C 99% 10.0 mph SSW16.1 kmh SSW 24.0 mph38.6 kmh 29.94 in1013.9 mb 0.01 in0.3 mm 0.00 in0.0 mm 0.04 in1.0 mm
04:45 PM 58.8°F14.9°C 58.5°F14.7°C 99% 10.0 mph SSW16.1 kmh SSW 24.0 mph38.6 kmh 29.94 in1013.9 mb 0.01 in0.3 mm 0.00 in0.0 mm 0.04 in1.0 mm
04:48 PM 58.8°F14.9°C 58.5°F14.7°C 99% 10.0 mph SSW16.1 kmh SSW 18.0 mph29.0 kmh 29.94 in1013.9 mb 0.01 in0.3 mm 0.00 in0.0 mm 0.04 in1.0 mm
04:51 PM 58.8°F14.9°C 58.5°F14.7°C 99% 10.0 mph SSW16.1 kmh SSW 19.0 mph30.6 kmh 29.94 in1013.9 mb 0.01 in0.3 mm 0.00 in0.0 mm 0.04 in1.0 mm
04:54 PM 58.8°F14.9°C 58.5°F14.7°C 99% 10.0 mph SSW16.1 kmh SSW 21.0 mph33.8 kmh 29.94 in1013.9 mb 0.01 in0.3 mm 0.00 in0.0 mm 0.04 in1.0 mm
04:57 PM 58.8°F14.9°C 58.5°F14.7°C 99% 10.0 mph SSW16.1 kmh SSW 21.0 mph33.8 kmh 29.94 in1013.9 mb 0.01 in0.3 mm 0.00 in0.0 mm 0.04 in1.0 mm
05:00 PM 58.8°F14.9°C 58.5°F14.7°C 99% 11.0 mph SSW17.7 kmh SSW 21.0 mph33.8 kmh 29.94 in1013.9 mb 0.01 in0.3 mm 0.00 in0.0 mm 0.04 in1.0 mm
05:03 PM 58.6°F14.8°C 58.5°F14.7°C 99% 10.0 mph SSW16.1 kmh SSW 21.0 mph33.8 kmh 29.94 in1013.9 mb 0.00 in0.0 mm 0.00 in0.0 mm 0.04 in1.0 mm
05:06 PM 58.8°F14.9°C 58.5°F14.7°C 99% 9.0 mph SSW14.5 kmh SSW 18.0 mph29.0 kmh 29.94 in1013.9 mb 0.00 in0.0 mm 0.00 in0.0 mm 0.04 in1.0 mm
05:09 PM 58.6°F14.8°C 58.5°F14.7°C 99% 9.0 mph SSW14.5 kmh SSW 20.0 mph32.2 kmh 29.94 in1013.9 mb 0.00 in0.0 mm 0.00 in0.0 mm 0.04 in1.0 mm
05:12 PM 58.6°F14.8°C 58.5°F14.7°C 99% 9.0 mph SSW14.5 kmh SSW 20.0 mph32.2 kmh 29.94 in1013.9 mb 0.00 in0.0 mm 0.00 in0.0 mm 0.04 in1.0 mm
05:15 PM 58.6°F14.8°C 58.5°F14.7°C 99% 8.0 mph SSW12.9 kmh SSW 20.0 mph32.2 kmh 29.94 in1013.9 mb 0.00 in0.0 mm 0.00 in0.0 mm 0.04 in1.0 mm
05:18 PM 58.6°F14.8°C 58.5°F14.7°C 99% 8.0 mph SW12.9 kmh SW 18.0 mph29.0 kmh 29.94 in1013.9 mb 0.00 in0.0 mm 0.00 in0.0 mm 0.04 in1.0 mm
05:21 PM 58.6°F14.8°C 58.6°F14.8°C 100% 8.0 mph SW12.9 kmh SW 17.0 mph27.4 kmh 29.94 in1013.9 mb 0.00 in0.0 mm 0.00 in0.0 mm 0.04 in1.0 mm
05:24 PM 58.6°F14.8°C 58.5°F14.7°C 99% 8.0 mph SW12.9 kmh SW 17.0 mph27.4 kmh 29.95 in1014.2 mb 0.00 in0.0 mm 0.00 in0.0 mm 0.04 in1.0 mm
05:27 PM 58.6°F14.8°C 58.5°F14.7°C 99% 8.0 mph SSW12.9 kmh SSW 17.0 mph27.4 kmh 29.94 in1013.9 mb 0.00 in0.0 mm 0.00 in0.0 mm 0.04 in1.0 mm
05:30 PM 58.6°F14.8°C 58.5°F14.7°C 99% 8.0 mph SSW12.9 kmh SSW 17.0 mph27.4 kmh 29.94 in1013.9 mb 0.00 in0.0 mm 0.00 in0.0 mm 0.04 in1.0 mm
05:33 PM 58.8°F14.9°C 58.8°F14.9°C 100% 8.0 mph SSW12.9 kmh SSW 17.0 mph27.4 kmh 29.94 in1013.9 mb 0.00 in0.0 mm 0.00 in0.0 mm 0.04 in1.0 mm
05:36 PM 58.8°F14.9°C 58.8°F14.9°C 100% 7.0 mph SSW11.3 kmh SSW 17.0 mph27.4 kmh 29.94 in1013.9 mb 0.00 in0.0 mm 0.00 in0.0 mm 0.04 in1.0 mm
05:39 PM 58.8°F14.9°C 58.8°F14.9°C 100% 6.0 mph SSW9.7 kmh SSW 17.0 mph27.4 kmh 29.94 in1013.9 mb 0.00 in0.0 mm 0.00 in0.0 mm 0.04 in1.0 mm
05:42 PM 58.8°F14.9°C 58.8°F14.9°C 100% 6.0 mph SSW9.7 kmh SSW 17.0 mph27.4 kmh 29.94 in1013.9 mb 0.00 in0.0 mm 0.00 in0.0 mm 0.04 in1.0 mm
05:45 PM 58.8°F14.9°C 58.8°F14.9°C 100% 6.0 mph SSW9.7 kmh SSW 17.0 mph27.4 kmh 29.94 in1013.9 mb 0.00 in0.0 mm 0.00 in0.0 mm 0.04 in1.0 mm
05:48 PM 58.8°F14.9°C 58.8°F14.9°C 100% 6.0 mph SSW9.7 kmh SSW 17.0 mph27.4 kmh 29.94 in1013.9 mb 0.00 in0.0 mm 0.00 in0.0 mm 0.04 in1.0 mm
05:51 PM 58.8°F14.9°C 58.8°F14.9°C 100% 6.0 mph SSW9.7 kmh SSW 17.0 mph27.4 kmh 29.94 in1013.9 mb 0.00 in0.0 mm 0.00 in0.0 mm 0.04 in1.0 mm
05:54 PM 58.8°F14.9°C 58.8°F14.9°C 100% 8.0 mph SSW12.9 kmh SSW 9.0 mph14.5 kmh 29.94 in1013.9 mb 0.00 in0.0 mm 0.00 in0.0 mm 0.04 in1.0 mm
05:57 PM 58.8°F14.9°C 58.8°F14.9°C 100% 10.0 mph SSW16.1 kmh SSW 18.0 mph29.0 kmh 29.94 in1013.9 mb 0.00 in0.0 mm 0.00 in0.0 mm 0.04 in1.0 mm
06:00 PM 58.8°F14.9°C 58.8°F14.9°C 100% 10.0 mph SSW16.1 kmh SSW 22.0 mph35.4 kmh 29.94 in1013.9 mb 0.00 in0.0 mm 0.00 in0.0 mm 0.04 in1.0 mm
06:03 PM 58.8°F14.9°C 58.8°F14.9°C 100% 10.0 mph SSW16.1 kmh SSW 22.0 mph35.4 kmh 29.94 in1013.9 mb 0.00 in0.0 mm 0.00 in0.0 mm 0.04 in1.0 mm
06:10 PM 58.9°F14.9°C 58.9°F14.9°C 100% Calm Calm -- 29.95 in1014.2 mb 0.00 in0.0 mm 0.00 in0.0 mm 0.04 in1.0 mm
06:11 PM 58.9°F14.9°C 58.9°F14.9°C 100% Calm Calm -- 29.95 in1014.2 mb 0.00 in0.0 mm 0.00 in0.0 mm 0.04 in1.0 mm
06:12 PM 58.9°F14.9°C 58.9°F14.9°C 100% Calm Calm -- 29.95 in1014.2 mb 0.00 in0.0 mm 0.00 in0.0 mm 0.04 in1.0 mm
06:13 PM 58.9°F14.9°C 58.9°F14.9°C 100% Calm Calm -- 29.95 in1014.2 mb 0.00 in0.0 mm 0.00 in0.0 mm 0.04 in1.0 mm
06:14 PM 58.9°F14.9°C 58.9°F14.9°C 100% Calm Calm -- 29.95 in1014.2 mb 0.00 in0.0 mm 0.00 in0.0 mm 0.04 in1.0 mm
06:15 PM 58.9°F14.9°C 58.9°F14.9°C 100% Calm Calm -- 29.95 in1014.2 mb 0.00 in0.0 mm 0.00 in0.0 mm 0.04 in1.0 mm
06:16 PM 58.9°F14.9°C 58.9°F14.9°C 100% 7.0 mph S11.3 kmh S 7.0 mph11.3 kmh 29.95 in1014.2 mb 0.00 in0.0 mm 0.00 in0.0 mm 0.04 in1.0 mm
06:17 PM 58.9°F14.9°C 58.9°F14.9°C 100% 11.0 mph SSW17.7 kmh SSW 15.0 mph24.1 kmh 29.95 in1014.2 mb 0.00 in0.0 mm 0.00 in0.0 mm 0.04 in1.0 mm
06:21 PM 59.0°F15.0°C 59.0°F15.0°C 100% 11.0 mph SSW17.7 kmh SSW 15.0 mph24.1 kmh 29.94 in1013.9 mb 29.18 in741.2 mm 437.70 in11117.6 mm 29.22 in742.2 mm
06:24 PM 59.0°F15.0°C 59.0°F15.0°C 100% 13.0 mph S20.9 kmh S 17.0 mph27.4 kmh 29.94 in1013.9 mb 29.18 in741.2 mm 0.00 in0.0 mm 29.22 in742.2 mm
06:27 PM 59.0°F15.0°C 59.0°F15.0°C 100% 12.0 mph S19.3 kmh S 17.0 mph27.4 kmh 29.94 in1013.9 mb 29.18 in741.2 mm 0.00 in0.0 mm 29.22 in742.2 mm
06:30 PM 59.0°F15.0°C 59.0°F15.0°C 100% 12.0 mph S19.3 kmh S 18.0 mph29.0 kmh 29.94 in1013.9 mb 29.18 in741.2 mm 0.00 in0.0 mm 29.22 in742.2 mm
06:33 PM 59.0°F15.0°C 59.0°F15.0°C 100% 12.0 mph S19.3 kmh S 21.0 mph33.8 kmh 29.94 in1013.9 mb 29.18 in741.2 mm 0.00 in0.0 mm 29.22 in742.2 mm
06:34 PM 59.0°F15.0°C 59.0°F15.0°C 100% 12.0 mph S19.3 kmh S 23.0 mph37.0 kmh 29.94 in1013.9 mb 29.18 in741.2 mm 0.00 in0.0 mm 29.22 in742.2 mm
06:35 PM 59.0°F15.0°C 59.0°F15.0°C 100% 13.0 mph S20.9 kmh S 23.0 mph37.0 kmh 29.94 in1013.9 mb 29.18 in741.2 mm 0.00 in0.0 mm 29.22 in742.2 mm
06:39 PM 59.0°F15.0°C 59.0°F15.0°C 100% 13.0 mph S20.9 kmh S 23.0 mph37.0 kmh 29.94 in1013.9 mb 29.18 in741.2 mm 0.00 in0.0 mm 29.22 in742.2 mm
06:42 PM 59.2°F15.1°C 59.2°F15.1°C 100% 14.0 mph S22.5 kmh S 24.0 mph38.6 kmh 29.93 in1013.5 mb 29.18 in741.2 mm 0.00 in0.0 mm 29.22 in742.2 mm
06:45 PM 59.2°F15.1°C 59.2°F15.1°C 100% 14.0 mph S22.5 kmh S 25.0 mph40.2 kmh 29.93 in1013.5 mb 29.18 in741.2 mm 0.00 in0.0 mm 29.22 in742.2 mm
06:48 PM 59.0°F15.0°C 59.0°F15.0°C 100% 14.0 mph S22.5 kmh S 25.0 mph40.2 kmh 29.93 in1013.5 mb 29.18 in741.2 mm 0.00 in0.0 mm 29.22 in742.2 mm
06:51 PM 59.2°F15.1°C 59.2°F15.1°C 100% 13.0 mph S20.9 kmh S 25.0 mph40.2 kmh 29.94 in1013.9 mb 29.18 in741.2 mm 0.00 in0.0 mm 29.22 in742.2 mm
06:54 PM 59.2°F15.1°C 59.2°F15.1°C 100% 12.0 mph S19.3 kmh S 25.0 mph40.2 kmh 29.94 in1013.9 mb 29.18 in741.2 mm 0.00 in0.0 mm 29.22 in742.2 mm
06:57 PM 59.2°F15.1°C 59.2°F15.1°C 100% 11.0 mph S17.7 kmh S 21.0 mph33.8 kmh 29.94 in1013.9 mb 29.18 in741.2 mm 0.00 in0.0 mm 29.22 in742.2 mm
07:00 PM 59.2°F15.1°C 59.2°F15.1°C 100% 11.0 mph S17.7 kmh S 22.0 mph35.4 kmh 29.93 in1013.5 mb 29.18 in741.2 mm 0.00 in0.0 mm 29.22 in742.2 mm
07:03 PM 59.2°F15.1°C 59.2°F15.1°C 100% 11.0 mph S17.7 kmh S 23.0 mph37.0 kmh 29.94 in1013.9 mb 29.18 in741.2 mm 0.00 in0.0 mm 29.22 in742.2 mm
07:06 PM 59.2°F15.1°C 59.2°F15.1°C 100% 12.0 mph S19.3 kmh S 23.0 mph37.0 kmh 29.93 in1013.5 mb 29.18 in741.2 mm 0.00 in0.0 mm 29.22 in742.2 mm
07:09 PM 59.2°F15.1°C 59.2°F15.1°C 100% 12.0 mph S19.3 kmh S 23.0 mph37.0 kmh 29.94 in1013.9 mb 29.18 in741.2 mm 0.00 in0.0 mm 29.22 in742.2 mm
07:12 PM 59.2°F15.1°C 59.2°F15.1°C 100% 12.0 mph S19.3 kmh S 23.0 mph37.0 kmh 29.94 in1013.9 mb 29.18 in741.2 mm 0.00 in0.0 mm 29.22 in742.2 mm
07:15 PM 59.2°F15.1°C 59.2°F15.1°C 100% 12.0 mph S19.3 kmh S 23.0 mph37.0 kmh 29.94 in1013.9 mb 29.18 in741.2 mm 0.00 in0.0 mm 29.22 in742.2 mm
07:18 PM 59.2°F15.1°C 59.2°F15.1°C 100% 12.0 mph SSW19.3 kmh SSW 23.0 mph37.0 kmh 29.93 in1013.5 mb 0.00 in0.0 mm 0.00 in0.0 mm 29.22 in742.2 mm
07:21 PM 59.2°F15.1°C 59.2°F15.1°C 100% 11.0 mph SSW17.7 kmh SSW 23.0 mph37.0 kmh 29.93 in1013.5 mb 0.00 in0.0 mm 0.00 in0.0 mm 29.22 in742.2 mm
07:24 PM 59.2°F15.1°C 59.2°F15.1°C 100% 12.0 mph S19.3 kmh S 20.0 mph32.2 kmh 29.93 in1013.5 mb 0.00 in0.0 mm 0.00 in0.0 mm 29.22 in742.2 mm
07:27 PM 59.2°F15.1°C 59.2°F15.1°C 100% 12.0 mph S19.3 kmh S 21.0 mph33.8 kmh 29.93 in1013.5 mb 0.00 in0.0 mm 0.00 in0.0 mm 29.22 in742.2 mm
07:30 PM 59.2°F15.1°C 59.2°F15.1°C 100% 12.0 mph S19.3 kmh S 21.0 mph33.8 kmh 29.94 in1013.9 mb 0.00 in0.0 mm 0.00 in0.0 mm 29.22 in742.2 mm
07:33 PM 59.2°F15.1°C 59.2°F15.1°C 100% 12.0 mph S19.3 kmh S 21.0 mph33.8 kmh 29.94 in1013.9 mb 0.00 in0.0 mm 0.00 in0.0 mm 29.22 in742.2 mm
07:36 PM 59.2°F15.1°C 59.2°F15.1°C 100% 11.0 mph S17.7 kmh S 21.0 mph33.8 kmh 29.94 in1013.9 mb 0.00 in0.0 mm 0.00 in0.0 mm 29.22 in742.2 mm
07:39 PM 59.2°F15.1°C 59.2°F15.1°C 100% 11.0 mph S17.7 kmh S 20.0 mph32.2 kmh 29.94 in1013.9 mb 0.00 in0.0 mm 0.00 in0.0 mm 29.22 in742.2 mm
07:42 PM 59.2°F15.1°C 59.2°F15.1°C 100% 11.0 mph S17.7 kmh S 20.0 mph32.2 kmh 29.94 in1013.9 mb 0.00 in0.0 mm 0.00 in0.0 mm 29.22 in742.2 mm
07:45 PM 59.2°F15.1°C 59.2°F15.1°C 100% 11.0 mph S17.7 kmh S 19.0 mph30.6 kmh 29.94 in1013.9 mb 0.01 in0.3 mm 0.20 in5.1 mm 29.23 in742.4 mm
07:48 PM 59.2°F15.1°C 59.2°F15.1°C 100% 11.0 mph S17.7 kmh S 23.0 mph37.0 kmh 29.94 in1013.9 mb 0.01 in0.3 mm 0.00 in0.0 mm 29.23 in742.4 mm
07:51 PM 59.2°F15.1°C 59.2°F15.1°C 100% 11.0 mph S17.7 kmh S 23.0 mph37.0 kmh 29.94 in1013.9 mb 0.01 in0.3 mm 0.00 in0.0 mm 29.23 in742.4 mm
07:54 PM 59.2°F15.1°C 59.2°F15.1°C 100% 11.0 mph S17.7 kmh S 23.0 mph37.0 kmh 29.94 in1013.9 mb 0.01 in0.3 mm 0.00 in0.0 mm 29.23 in742.4 mm
07:57 PM 59.2°F15.1°C 59.2°F15.1°C 100% 11.0 mph SSW17.7 kmh SSW 28.0 mph45.1 kmh 29.94 in1013.9 mb 0.01 in0.3 mm 0.00 in0.0 mm 29.23 in742.4 mm
08:00 PM 59.2°F15.1°C 59.2°F15.1°C 100% 12.0 mph SSW19.3 kmh SSW 28.0 mph45.1 kmh 29.94 in1013.9 mb 0.01 in0.3 mm 0.00 in0.0 mm 29.23 in742.4 mm
08:03 PM 59.2°F15.1°C 59.2°F15.1°C 100% 11.0 mph SSW17.7 kmh SSW 28.0 mph45.1 kmh 29.94 in1013.9 mb 0.01 in0.3 mm 0.00 in0.0 mm 29.23 in742.4 mm
08:06 PM 59.2°F15.1°C 59.2°F15.1°C 100% 11.0 mph SSW17.7 kmh SSW 20.0 mph32.2 kmh 29.93 in1013.5 mb 0.01 in0.3 mm 0.00 in0.0 mm 29.23 in742.4 mm
08:09 PM 59.2°F15.1°C 59.2°F15.1°C 100% 11.0 mph SSW17.7 kmh SSW 19.0 mph30.6 kmh 29.94 in1013.9 mb 0.01 in0.3 mm 0.00 in0.0 mm 29.23 in742.4 mm
08:12 PM 59.2°F15.1°C 59.2°F15.1°C 100% 11.0 mph S17.7 kmh S 23.0 mph37.0 kmh 29.93 in1013.5 mb 0.01 in0.3 mm 0.00 in0.0 mm 29.23 in742.4 mm
08:15 PM 59.2°F15.1°C 59.2°F15.1°C 100% 12.0 mph S19.3 kmh S 26.0 mph41.8 kmh 29.93 in1013.5 mb 0.01 in0.3 mm 0.00 in0.0 mm 29.23 in742.4 mm
08:18 PM 59.2°F15.1°C 59.2°F15.1°C 100% 12.0 mph S19.3 kmh S 26.0 mph41.8 kmh 29.94 in1013.9 mb 0.01 in0.3 mm 0.00 in0.0 mm 29.23 in742.4 mm
08:21 PM 59.2°F15.1°C 59.2°F15.1°C 100% 12.0 mph S19.3 kmh S 26.0 mph41.8 kmh 29.94 in1013.9 mb 0.01 in0.3 mm 0.00 in0.0 mm 29.23 in742.4 mm
08:24 PM 59.2°F15.1°C 59.2°F15.1°C 100% 11.0 mph S17.7 kmh S 24.0 mph38.6 kmh 29.94 in1013.9 mb 0.01 in0.3 mm 0.00 in0.0 mm 29.23 in742.4 mm
08:27 PM 59.2°F15.1°C 59.2°F15.1°C 100% 11.0 mph SSW17.7 kmh SSW 23.0 mph37.0 kmh 29.94 in1013.9 mb 0.01 in0.3 mm 0.00 in0.0 mm 29.23 in742.4 mm
08:30 PM 59.2°F15.1°C 59.2°F15.1°C 100% 11.0 mph SSW17.7 kmh SSW 23.0 mph37.0 kmh 29.94 in1013.9 mb 0.01 in0.3 mm 0.00 in0.0 mm 29.23 in742.4 mm
08:33 PM 59.2°F15.1°C 59.2°F15.1°C 100% 10.0 mph SSW16.1 kmh SSW 23.0 mph37.0 kmh 29.94 in1013.9 mb 0.01 in0.3 mm 0.00 in0.0 mm 29.23 in742.4 mm
08:36 PM 59.2°F15.1°C 59.2°F15.1°C 100% 10.0 mph S16.1 kmh S 22.0 mph35.4 kmh 29.93 in1013.5 mb 0.01 in0.3 mm 0.00 in0.0 mm 29.23 in742.4 mm
08:39 PM 59.2°F15.1°C 59.2°F15.1°C 100% 10.0 mph SSW16.1 kmh SSW 22.0 mph35.4 kmh 29.94 in1013.9 mb 0.01 in0.3 mm 0.00 in0.0 mm 29.23 in742.4 mm
08:42 PM 59.2°F15.1°C 59.2°F15.1°C 100% 11.0 mph SSW17.7 kmh SSW 22.0 mph35.4 kmh 29.94 in1013.9 mb 0.01 in0.3 mm 0.00 in0.0 mm 29.23 in742.4 mm
08:45 PM 59.2°F15.1°C 59.2°F15.1°C 100% 11.0 mph SSW17.7 kmh SSW 21.0 mph33.8 kmh 29.94 in1013.9 mb 0.00 in0.0 mm 0.00 in0.0 mm 29.23 in742.4 mm
08:48 PM 59.2°F15.1°C 59.2°F15.1°C 100% 10.0 mph SSW16.1 kmh SSW 21.0 mph33.8 kmh 29.93 in1013.5 mb 0.00 in0.0 mm 0.00 in0.0 mm 29.23 in742.4 mm
08:51 PM 59.4°F15.2°C 59.4°F15.2°C 100% 11.0 mph S17.7 kmh S 21.0 mph33.8 kmh 29.93 in1013.5 mb 0.00 in0.0 mm 0.00 in0.0 mm 29.23 in742.4 mm
08:54 PM 59.2°F15.1°C 59.2°F15.1°C 100% 11.0 mph S17.7 kmh S 22.0 mph35.4 kmh 29.93 in1013.5 mb 0.00 in0.0 mm 0.00 in0.0 mm 29.23 in742.4 mm
08:57 PM 59.2°F15.1°C 59.2°F15.1°C 100% 12.0 mph S19.3 kmh S 22.0 mph35.4 kmh 29.92 in1013.2 mb 0.00 in0.0 mm 0.00 in0.0 mm 29.23 in742.4 mm
09:00 PM 59.4°F15.2°C 59.4°F15.2°C 100% 12.0 mph S19.3 kmh S 24.0 mph38.6 kmh 29.93 in1013.5 mb 0.00 in0.0 mm 0.00 in0.0 mm 29.23 in742.4 mm
09:03 PM 59.2°F15.1°C 59.2°F15.1°C 100% 12.0 mph S19.3 kmh S 26.0 mph41.8 kmh 29.92 in1013.2 mb 0.00 in0.0 mm 0.00 in0.0 mm 29.23 in742.4 mm
09:06 PM 59.2°F15.1°C 59.2°F15.1°C 100% 11.0 mph S17.7 kmh S 26.0 mph41.8 kmh 29.93 in1013.5 mb 0.00 in0.0 mm 0.00 in0.0 mm 29.23 in742.4 mm
09:09 PM 59.2°F15.1°C 59.2°F15.1°C 100% 11.0 mph S17.7 kmh S 26.0 mph41.8 kmh 29.92 in1013.2 mb 0.00 in0.0 mm 0.00 in0.0 mm 29.23 in742.4 mm
09:12 PM 59.2°F15.1°C 59.2°F15.1°C 100% 12.0 mph S19.3 kmh S 24.0 mph38.6 kmh 29.92 in1013.2 mb 0.00 in0.0 mm 0.00 in0.0 mm 29.23 in742.4 mm
09:15 PM 59.2°F15.1°C 59.2°F15.1°C 100% 13.0 mph S20.9 kmh S 26.0 mph41.8 kmh 29.92 in1013.2 mb 0.00 in0.0 mm 0.00 in0.0 mm 29.23 in742.4 mm
09:18 PM 59.2°F15.1°C 59.2°F15.1°C 100% 14.0 mph S22.5 kmh S 26.0 mph41.8 kmh 29.92 in1013.2 mb 0.00 in0.0 mm 0.00 in0.0 mm 29.23 in742.4 mm
09:21 PM 59.2°F15.1°C 59.2°F15.1°C 100% 14.0 mph S22.5 kmh S 26.0 mph41.8 kmh 29.92 in1013.2 mb 0.00 in0.0 mm 0.00 in0.0 mm 29.23 in742.4 mm
09:24 PM 59.2°F15.1°C 59.2°F15.1°C 100% 13.0 mph S20.9 kmh S 21.0 mph33.8 kmh 29.91 in1012.9 mb 0.00 in0.0 mm 0.00 in0.0 mm 29.23 in742.4 mm
09:27 PM 59.4°F15.2°C 59.4°F15.2°C 100% 13.0 mph S20.9 kmh S 25.0 mph40.2 kmh 29.91 in1012.9 mb 0.00 in0.0 mm 0.00 in0.0 mm 29.23 in742.4 mm
09:30 PM 59.4°F15.2°C 59.4°F15.2°C 100% 14.0 mph S22.5 kmh S 29.0 mph46.7 kmh 29.91 in1012.9 mb 0.01 in0.3 mm 0.20 in5.1 mm 29.24 in742.7 mm
09:33 PM 59.4°F15.2°C 59.4°F15.2°C 100% 16.0 mph S25.7 kmh S 29.0 mph46.7 kmh 29.91 in1012.9 mb 0.01 in0.3 mm 0.00 in0.0 mm 29.24 in742.7 mm
09:36 PM 59.4°F15.2°C 59.4°F15.2°C 100% 16.0 mph S25.7 kmh S 29.0 mph46.7 kmh 29.91 in1012.9 mb 0.01 in0.3 mm 0.00 in0.0 mm 29.24 in742.7 mm
09:39 PM 59.4°F15.2°C 59.4°F15.2°C 100% 16.0 mph S25.7 kmh S 37.0 mph59.5 kmh 29.90 in1012.5 mb 0.01 in0.3 mm 0.00 in0.0 mm 29.24 in742.7 mm
09:42 PM 59.4°F15.2°C 59.4°F15.2°C 100% 15.0 mph S24.1 kmh S 37.0 mph59.5 kmh 29.90 in1012.5 mb 0.01 in0.3 mm 0.00 in0.0 mm 29.24 in742.7 mm
09:45 PM 59.4°F15.2°C 59.4°F15.2°C 100% 15.0 mph S24.1 kmh S 37.0 mph59.5 kmh 29.90 in1012.5 mb 0.01 in0.3 mm 0.00 in0.0 mm 29.24 in742.7 mm
09:48 PM 59.4°F15.2°C 59.4°F15.2°C 100% 15.0 mph S24.1 kmh S 29.0 mph46.7 kmh 29.91 in1012.9 mb 0.01 in0.3 mm 0.00 in0.0 mm 29.24 in742.7 mm
09:51 PM 59.4°F15.2°C 59.4°F15.2°C 100% 15.0 mph S24.1 kmh S 29.0 mph46.7 kmh 29.90 in1012.5 mb 0.01 in0.3 mm 0.00 in0.0 mm 29.24 in742.7 mm
09:54 PM 59.4°F15.2°C 59.4°F15.2°C 100% 15.0 mph S24.1 kmh S 29.0 mph46.7 kmh 29.90 in1012.5 mb 0.01 in0.3 mm 0.00 in0.0 mm 29.24 in742.7 mm
09:57 PM 59.4°F15.2°C 59.4°F15.2°C 100% 16.0 mph S25.7 kmh S 29.0 mph46.7 kmh 29.90 in1012.5 mb 0.01 in0.3 mm 0.00 in0.0 mm 29.24 in742.7 mm
10:00 PM 59.4°F15.2°C 59.4°F15.2°C 100% 16.0 mph S25.7 kmh S 28.0 mph45.1 kmh 29.90 in1012.5 mb 0.01 in0.3 mm 0.00 in0.0 mm 29.24 in742.7 mm
10:03 PM 59.4°F15.2°C 59.4°F15.2°C 100% 17.0 mph S27.4 kmh S 29.0 mph46.7 kmh 29.90 in1012.5 mb 0.01 in0.3 mm 0.00 in0.0 mm 29.24 in742.7 mm
10:06 PM 59.4°F15.2°C 59.4°F15.2°C 100% 17.0 mph S27.4 kmh S 30.0 mph48.3 kmh 29.90 in1012.5 mb 0.01 in0.3 mm 0.00 in0.0 mm 29.24 in742.7 mm
10:09 PM 59.4°F15.2°C 59.4°F15.2°C 100% 17.0 mph S27.4 kmh S 30.0 mph48.3 kmh 29.90 in1012.5 mb 0.02 in0.5 mm 0.20 in5.1 mm 29.24 in742.7 mm
10:12 PM 59.2°F15.1°C 59.2°F15.1°C 100% 18.0 mph S29.0 kmh S 30.0 mph48.3 kmh 29.90 in1012.5 mb 0.02 in0.5 mm 0.00 in0.0 mm 29.24 in742.7 mm
10:15 PM 59.2°F15.1°C 59.2°F15.1°C 100% 19.0 mph S30.6 kmh S 30.0 mph48.3 kmh 29.90 in1012.5 mb 0.02 in0.5 mm 0.00 in0.0 mm 29.24 in742.7 mm
10:18 PM 59.2°F15.1°C 59.2°F15.1°C 100% 20.0 mph S32.2 kmh S 30.0 mph48.3 kmh 29.90 in1012.5 mb 0.02 in0.5 mm 0.00 in0.0 mm 29.25 in743.0 mm
10:21 PM 59.2°F15.1°C 59.2°F15.1°C 100% 20.0 mph S32.2 kmh S 36.0 mph57.9 kmh 29.90 in1012.5 mb 0.02 in0.5 mm 0.00 in0.0 mm 29.25 in743.0 mm
10:24 PM 59.2°F15.1°C 59.2°F15.1°C 100% 21.0 mph S33.8 kmh S 36.0 mph57.9 kmh 29.90 in1012.5 mb 0.02 in0.5 mm 0.00 in0.0 mm 29.25 in743.0 mm
10:27 PM 59.2°F15.1°C 59.2°F15.1°C 100% 19.0 mph S30.6 kmh S 36.0 mph57.9 kmh 29.91 in1012.9 mb 0.02 in0.5 mm 0.00 in0.0 mm 29.25 in743.0 mm
10:30 PM 59.2°F15.1°C 59.2°F15.1°C 100% 18.0 mph S29.0 kmh S 29.0 mph46.7 kmh 29.91 in1012.9 mb 0.02 in0.5 mm 0.00 in0.0 mm 29.25 in743.0 mm
10:33 PM 59.4°F15.2°C 59.4°F15.2°C 100% 17.0 mph S27.4 kmh S 28.0 mph45.1 kmh 29.90 in1012.5 mb 0.02 in0.5 mm 0.00 in0.0 mm 29.25 in743.0 mm
10:36 PM 59.4°F15.2°C 59.4°F15.2°C 100% 16.0 mph S25.7 kmh S 28.0 mph45.1 kmh 29.91 in1012.9 mb 0.02 in0.5 mm 0.00 in0.0 mm 29.25 in743.0 mm
10:39 PM 59.4°F15.2°C 59.4°F15.2°C 100% 17.0 mph S27.4 kmh S 32.0 mph51.5 kmh 29.91 in1012.9 mb 0.02 in0.5 mm 0.00 in0.0 mm 29.25 in743.0 mm
10:42 PM 59.4°F15.2°C 59.4°F15.2°C 100% 16.0 mph S25.7 kmh S 32.0 mph51.5 kmh 29.91 in1012.9 mb 0.02 in0.5 mm 0.00 in0.0 mm 29.25 in743.0 mm
10:45 PM 59.4°F15.2°C 59.4°F15.2°C 100% 15.0 mph S24.1 kmh S 32.0 mph51.5 kmh 29.91 in1012.9 mb 0.02 in0.5 mm 0.00 in0.0 mm 29.25 in743.0 mm
10:48 PM 59.5°F15.3°C 59.5°F15.3°C 100% 10.0 mph S16.1 kmh S 28.0 mph45.1 kmh 29.91 in1012.9 mb 0.02 in0.5 mm 0.00 in0.0 mm 29.25 in743.0 mm
10:51 PM 59.4°F15.2°C 59.4°F15.2°C 100% 9.0 mph S14.5 kmh S 26.0 mph41.8 kmh 29.91 in1012.9 mb 0.02 in0.5 mm 0.00 in0.0 mm 29.25 in743.0 mm
10:54 PM 59.4°F15.2°C 59.4°F15.2°C 100% 9.0 mph S14.5 kmh S 26.0 mph41.8 kmh 29.91 in1012.9 mb 0.02 in0.5 mm 0.00 in0.0 mm 29.25 in743.0 mm
10:57 PM 59.4°F15.2°C 59.4°F15.2°C 100% 9.0 mph S14.5 kmh S 26.0 mph41.8 kmh 29.91 in1012.9 mb 0.02 in0.5 mm 0.00 in0.0 mm 29.26 in743.2 mm
11:00 PM 59.4°F15.2°C 59.4°F15.2°C 100% 9.0 mph S14.5 kmh S 26.0 mph41.8 kmh 29.91 in1012.9 mb 0.02 in0.5 mm 0.00 in0.0 mm 29.25 in743.0 mm
11:03 PM 59.4°F15.2°C 59.4°F15.2°C 100% 13.0 mph S20.9 kmh S 19.0 mph30.6 kmh 29.91 in1012.9 mb 0.02 in0.5 mm 0.00 in0.0 mm 29.25 in743.0 mm
11:06 PM 59.4°F15.2°C 59.4°F15.2°C 100% 13.0 mph S20.9 kmh S 23.0 mph37.0 kmh 29.91 in1012.9 mb 0.02 in0.5 mm 0.00 in0.0 mm 29.25 in743.0 mm
11:09 PM 59.4°F15.2°C 59.4°F15.2°C 100% 13.0 mph S20.9 kmh S 23.0 mph37.0 kmh 29.91 in1012.9 mb 0.02 in0.5 mm 0.00 in0.0 mm 29.25 in743.0 mm
11:12 PM 59.4°F15.2°C 59.4°F15.2°C 100% 14.0 mph S22.5 kmh S 27.0 mph43.5 kmh 29.90 in1012.5 mb 0.02 in0.5 mm 0.00 in0.0 mm 29.25 in743.0 mm
11:15 PM 59.4°F15.2°C 59.4°F15.2°C 100% 14.0 mph S22.5 kmh S 27.0 mph43.5 kmh 29.90 in1012.5 mb 0.02 in0.5 mm 0.00 in0.0 mm 29.25 in743.0 mm
11:18 PM 59.4°F15.2°C 59.4°F15.2°C 100% 15.0 mph S24.1 kmh S 27.0 mph43.5 kmh 29.90 in1012.5 mb 0.01 in0.3 mm 0.00 in0.0 mm 29.25 in743.0 mm
11:21 PM 59.4°F15.2°C 59.4°F15.2°C 100% 14.0 mph S22.5 kmh S 25.0 mph40.2 kmh 29.90 in1012.5 mb 0.01 in0.3 mm 0.00 in0.0 mm 29.25 in743.0 mm
11:24 PM 59.4°F15.2°C 59.4°F15.2°C 100% 13.0 mph S20.9 kmh S 25.0 mph40.2 kmh 29.90 in1012.5 mb 0.01 in0.3 mm 0.00 in0.0 mm 29.25 in743.0 mm
11:27 PM 59.4°F15.2°C 59.4°F15.2°C 100% 13.0 mph S20.9 kmh S 25.0 mph40.2 kmh 29.90 in1012.5 mb 0.01 in0.3 mm 0.00 in0.0 mm 29.25 in743.0 mm
11:30 PM 59.4°F15.2°C 59.4°F15.2°C 100% 13.0 mph S20.9 kmh S 22.0 mph35.4 kmh 29.89 in1012.2 mb 0.02 in0.5 mm 0.20 in5.1 mm 0.01 in0.3 mm
11:33 PM 59.4°F15.2°C 59.4°F15.2°C 100% 12.0 mph SSW19.3 kmh SSW 23.0 mph37.0 kmh 29.89 in1012.2 mb 0.02 in0.5 mm 0.00 in0.0 mm 0.01 in0.3 mm
11:36 PM 59.4°F15.2°C 59.4°F15.2°C 100% 12.0 mph SSW19.3 kmh SSW 24.0 mph38.6 kmh 29.89 in1012.2 mb 0.02 in0.5 mm 0.00 in0.0 mm 0.01 in0.3 mm
11:39 PM 59.4°F15.2°C 59.4°F15.2°C 100% 13.0 mph SSW20.9 kmh SSW 27.0 mph43.5 kmh 29.89 in1012.2 mb 0.02 in0.5 mm 0.00 in0.0 mm 0.01 in0.3 mm
11:42 PM 59.4°F15.2°C 59.4°F15.2°C 100% 13.0 mph SSW20.9 kmh SSW 27.0 mph43.5 kmh 29.89 in1012.2 mb 0.02 in0.5 mm 0.00 in0.0 mm 0.01 in0.3 mm
11:45 PM 59.4°F15.2°C 59.4°F15.2°C 100% 12.0 mph SSW19.3 kmh SSW 27.0 mph43.5 kmh 29.89 in1012.2 mb 0.02 in0.5 mm 0.00 in0.0 mm 0.01 in0.3 mm
11:48 PM 59.2°F15.1°C 59.2°F15.1°C 100% 12.0 mph SSW19.3 kmh SSW 27.0 mph43.5 kmh 29.89 in1012.2 mb 0.02 in0.5 mm 0.00 in0.0 mm 0.01 in0.3 mm
11:51 PM 59.2°F15.1°C 59.2°F15.1°C 100% 11.0 mph SSW17.7 kmh SSW 21.0 mph33.8 kmh 29.89 in1012.2 mb 0.02 in0.5 mm 0.00 in0.0 mm 0.01 in0.3 mm
11:54 PM 59.2°F15.1°C 59.2°F15.1°C 100% 10.0 mph SSW16.1 kmh SSW 18.0 mph29.0 kmh 29.89 in1012.2 mb 0.02 in0.5 mm 0.00 in0.0 mm 0.01 in0.3 mm
11:57 PM 59.2°F15.1°C 59.2°F15.1°C 100% 9.0 mph SSW14.5 kmh SSW 18.0 mph29.0 kmh 29.89 in1012.2 mb 0.01 in0.3 mm 0.00 in0.0 mm 0.01 in0.3 mm